<?xml version="1.0" encoding="UTF-8" standalone="no" ?>
<gpx xmlns="http://www.topografix.com/GPX/1/1" xmlns:xsi="http://www.w3.org/2001/XMLSchema-instance" xsi:schemaLocation="http://www.topografix.com/GPX/1/1 http://www.topografix.com/GPX/1/1/gpx.xsd" version="1.1" creator="VisuGPX - https://www.visugpx.com">
  <metadata>
    <name>Tour de la Lauvette</name>
    <desc><![CDATA[Tour de la Lauvette]]></desc>
  </metadata>
  <trk>
    <name><![CDATA[Tracé actuel: 18 MARS 2015 11:50]]></name>
    <trkseg>
      <trkpt lat="43.94673" lon="7.00366">
        <ele>290.94</ele>
        <time>2015-03-18T10:50:54Z</time>
      </trkpt>
      <trkpt lat="43.94674" lon="7.00365">
        <ele>290.94</ele>
        <time>2015-03-18T10:50:55Z</time>
      </trkpt>
      <trkpt lat="43.94673" lon="7.00364">
        <ele>294.78</ele>
        <time>2015-03-18T10:50:58Z</time>
      </trkpt>
      <trkpt lat="43.94673" lon="7.00365">
        <ele>298.63</ele>
        <time>2015-03-18T10:51:01Z</time>
      </trkpt>
      <trkpt lat="43.94673" lon="7.00364">
        <ele>301.99</ele>
        <time>2015-03-18T10:51:04Z</time>
      </trkpt>
      <trkpt lat="43.94673" lon="7.00365">
        <ele>306.32</ele>
        <time>2015-03-18T10:51:08Z</time>
      </trkpt>
      <trkpt lat="43.94673" lon="7.00363">
        <ele>309.2</ele>
        <time>2015-03-18T10:51:12Z</time>
      </trkpt>
      <trkpt lat="43.9467" lon="7.00362">
        <ele>312.09</ele>
        <time>2015-03-18T10:51:16Z</time>
      </trkpt>
      <trkpt lat="43.94674" lon="7.00361">
        <ele>315.93</ele>
        <time>2015-03-18T10:51:21Z</time>
      </trkpt>
      <trkpt lat="43.94673" lon="7.00363">
        <ele>318.81</ele>
        <time>2015-03-18T10:51:26Z</time>
      </trkpt>
      <trkpt lat="43.94675" lon="7.00365">
        <ele>322.18</ele>
        <time>2015-03-18T10:51:32Z</time>
      </trkpt>
      <trkpt lat="43.94677" lon="7.00367">
        <ele>325.06</ele>
        <time>2015-03-18T10:51:40Z</time>
      </trkpt>
      <trkpt lat="43.94675" lon="7.00367">
        <ele>327.95</ele>
        <time>2015-03-18T10:51:52Z</time>
      </trkpt>
      <trkpt lat="43.94674" lon="7.00366">
        <ele>328.91</ele>
        <time>2015-03-18T10:52:04Z</time>
      </trkpt>
      <trkpt lat="43.94674" lon="7.00365">
        <ele>329.39</ele>
        <time>2015-03-18T10:52:15Z</time>
      </trkpt>
      <trkpt lat="43.9467" lon="7.00375">
        <ele>328.91</ele>
        <time>2015-03-18T10:52:26Z</time>
      </trkpt>
      <trkpt lat="43.94671" lon="7.00388">
        <ele>329.39</ele>
        <time>2015-03-18T10:52:34Z</time>
      </trkpt>
      <trkpt lat="43.94667" lon="7.00405">
        <ele>329.39</ele>
        <time>2015-03-18T10:52:42Z</time>
      </trkpt>
      <trkpt lat="43.94665" lon="7.0042">
        <ele>328.91</ele>
        <time>2015-03-18T10:52:53Z</time>
      </trkpt>
      <trkpt lat="43.94666" lon="7.00435">
        <ele>328.43</ele>
        <time>2015-03-18T10:53:04Z</time>
      </trkpt>
      <trkpt lat="43.94667" lon="7.00436">
        <ele>328.43</ele>
        <time>2015-03-18T10:53:06Z</time>
      </trkpt>
      <trkpt lat="43.94672" lon="7.00448">
        <ele>328.43</ele>
        <time>2015-03-18T10:53:15Z</time>
      </trkpt>
      <trkpt lat="43.94676" lon="7.0046">
        <ele>328.43</ele>
        <time>2015-03-18T10:53:25Z</time>
      </trkpt>
      <trkpt lat="43.94683" lon="7.00474">
        <ele>328.43</ele>
        <time>2015-03-18T10:53:36Z</time>
      </trkpt>
      <trkpt lat="43.94688" lon="7.00491">
        <ele>329.39</ele>
        <time>2015-03-18T10:53:47Z</time>
      </trkpt>
      <trkpt lat="43.94686" lon="7.00501">
        <ele>329.87</ele>
        <time>2015-03-18T10:53:59Z</time>
      </trkpt>
      <trkpt lat="43.94688" lon="7.00533">
        <ele>331.31</ele>
        <time>2015-03-18T10:54:14Z</time>
      </trkpt>
      <trkpt lat="43.9469" lon="7.00537">
        <ele>331.31</ele>
        <time>2015-03-18T10:54:18Z</time>
      </trkpt>
      <trkpt lat="43.94702" lon="7.00554">
        <ele>333.23</ele>
        <time>2015-03-18T10:54:32Z</time>
      </trkpt>
      <trkpt lat="43.9471" lon="7.00561">
        <ele>333.71</ele>
        <time>2015-03-18T10:54:43Z</time>
      </trkpt>
      <trkpt lat="43.94716" lon="7.00576">
        <ele>335.16</ele>
        <time>2015-03-18T10:54:56Z</time>
      </trkpt>
      <trkpt lat="43.94727" lon="7.0059">
        <ele>336.12</ele>
        <time>2015-03-18T10:55:09Z</time>
      </trkpt>
      <trkpt lat="43.94733" lon="7.00595">
        <ele>337.56</ele>
        <time>2015-03-18T10:55:19Z</time>
      </trkpt>
      <trkpt lat="43.94735" lon="7.00597">
        <ele>337.08</ele>
        <time>2015-03-18T10:55:25Z</time>
      </trkpt>
      <trkpt lat="43.94739" lon="7.00602">
        <ele>337.56</ele>
        <time>2015-03-18T10:55:34Z</time>
      </trkpt>
      <trkpt lat="43.94742" lon="7.00614">
        <ele>338.52</ele>
        <time>2015-03-18T10:55:44Z</time>
      </trkpt>
      <trkpt lat="43.94743" lon="7.00616">
        <ele>338.52</ele>
        <time>2015-03-18T10:55:45Z</time>
      </trkpt>
      <trkpt lat="43.94745" lon="7.0062">
        <ele>339</ele>
        <time>2015-03-18T10:55:48Z</time>
      </trkpt>
      <trkpt lat="43.94755" lon="7.00635">
        <ele>339.96</ele>
        <time>2015-03-18T10:56:02Z</time>
      </trkpt>
      <trkpt lat="43.94768" lon="7.00641">
        <ele>341.41</ele>
        <time>2015-03-18T10:56:12Z</time>
      </trkpt>
      <trkpt lat="43.94773" lon="7.00651">
        <ele>341.89</ele>
        <time>2015-03-18T10:56:20Z</time>
      </trkpt>
      <trkpt lat="43.94776" lon="7.00652">
        <ele>341.89</ele>
        <time>2015-03-18T10:56:22Z</time>
      </trkpt>
      <trkpt lat="43.9479" lon="7.00654">
        <ele>342.37</ele>
        <time>2015-03-18T10:56:36Z</time>
      </trkpt>
      <trkpt lat="43.94801" lon="7.0066">
        <ele>342.85</ele>
        <time>2015-03-18T10:56:48Z</time>
      </trkpt>
      <trkpt lat="43.94811" lon="7.00668">
        <ele>343.81</ele>
        <time>2015-03-18T10:57:00Z</time>
      </trkpt>
      <trkpt lat="43.94819" lon="7.00672">
        <ele>344.29</ele>
        <time>2015-03-18T10:57:14Z</time>
      </trkpt>
      <trkpt lat="43.9482" lon="7.00678">
        <ele>344.77</ele>
        <time>2015-03-18T10:57:17Z</time>
      </trkpt>
      <trkpt lat="43.94816" lon="7.00705">
        <ele>347.65</ele>
        <time>2015-03-18T10:57:31Z</time>
      </trkpt>
      <trkpt lat="43.94816" lon="7.00721">
        <ele>350.54</ele>
        <time>2015-03-18T10:57:44Z</time>
      </trkpt>
      <trkpt lat="43.94817" lon="7.00731">
        <ele>351.98</ele>
        <time>2015-03-18T10:57:55Z</time>
      </trkpt>
      <trkpt lat="43.94818" lon="7.00733">
        <ele>352.94</ele>
        <time>2015-03-18T10:57:58Z</time>
      </trkpt>
      <trkpt lat="43.94826" lon="7.00745">
        <ele>354.86</ele>
        <time>2015-03-18T10:58:10Z</time>
      </trkpt>
      <trkpt lat="43.94826" lon="7.00752">
        <ele>356.31</ele>
        <time>2015-03-18T10:58:17Z</time>
      </trkpt>
      <trkpt lat="43.94833" lon="7.00753">
        <ele>359.19</ele>
        <time>2015-03-18T10:58:28Z</time>
      </trkpt>
      <trkpt lat="43.94837" lon="7.00753">
        <ele>362.55</ele>
        <time>2015-03-18T10:58:42Z</time>
      </trkpt>
      <trkpt lat="43.94846" lon="7.00763">
        <ele>364.96</ele>
        <time>2015-03-18T10:58:52Z</time>
      </trkpt>
      <trkpt lat="43.9485" lon="7.00772">
        <ele>366.88</ele>
        <time>2015-03-18T10:59:03Z</time>
      </trkpt>
      <trkpt lat="43.94852" lon="7.00782">
        <ele>368.8</ele>
        <time>2015-03-18T10:59:13Z</time>
      </trkpt>
      <trkpt lat="43.94856" lon="7.00793">
        <ele>370.73</ele>
        <time>2015-03-18T10:59:24Z</time>
      </trkpt>
      <trkpt lat="43.94857" lon="7.00794">
        <ele>372.65</ele>
        <time>2015-03-18T10:59:32Z</time>
      </trkpt>
      <trkpt lat="43.94861" lon="7.00803">
        <ele>375.05</ele>
        <time>2015-03-18T10:59:44Z</time>
      </trkpt>
      <trkpt lat="43.94865" lon="7.00807">
        <ele>377.45</ele>
        <time>2015-03-18T10:59:57Z</time>
      </trkpt>
      <trkpt lat="43.94867" lon="7.0082">
        <ele>380.34</ele>
        <time>2015-03-18T11:00:13Z</time>
      </trkpt>
      <trkpt lat="43.94874" lon="7.00823">
        <ele>381.78</ele>
        <time>2015-03-18T11:00:23Z</time>
      </trkpt>
      <trkpt lat="43.94876" lon="7.00822">
        <ele>384.66</ele>
        <time>2015-03-18T11:00:35Z</time>
      </trkpt>
      <trkpt lat="43.94877" lon="7.00823">
        <ele>386.59</ele>
        <time>2015-03-18T11:00:43Z</time>
      </trkpt>
      <trkpt lat="43.94886" lon="7.00833">
        <ele>388.51</ele>
        <time>2015-03-18T11:00:54Z</time>
      </trkpt>
      <trkpt lat="43.94889" lon="7.00846">
        <ele>389.95</ele>
        <time>2015-03-18T11:01:05Z</time>
      </trkpt>
      <trkpt lat="43.9489" lon="7.00835">
        <ele>391.87</ele>
        <time>2015-03-18T11:01:16Z</time>
      </trkpt>
      <trkpt lat="43.94893" lon="7.0082">
        <ele>393.8</ele>
        <time>2015-03-18T11:01:29Z</time>
      </trkpt>
      <trkpt lat="43.9489" lon="7.00821">
        <ele>397.16</ele>
        <time>2015-03-18T11:01:44Z</time>
      </trkpt>
      <trkpt lat="43.94887" lon="7.00823">
        <ele>400.05</ele>
        <time>2015-03-18T11:02:00Z</time>
      </trkpt>
      <trkpt lat="43.94931" lon="7.00857">
        <ele>401.01</ele>
        <time>2015-03-18T11:02:04Z</time>
      </trkpt>
      <trkpt lat="43.94924" lon="7.00841">
        <ele>401.49</ele>
        <time>2015-03-18T11:02:07Z</time>
      </trkpt>
      <trkpt lat="43.94888" lon="7.00781">
        <ele>402.45</ele>
        <time>2015-03-18T11:02:19Z</time>
      </trkpt>
      <trkpt lat="43.94887" lon="7.00775">
        <ele>403.89</ele>
        <time>2015-03-18T11:02:28Z</time>
      </trkpt>
      <trkpt lat="43.9489" lon="7.00779">
        <ele>406.29</ele>
        <time>2015-03-18T11:02:38Z</time>
      </trkpt>
      <trkpt lat="43.94894" lon="7.00794">
        <ele>406.77</ele>
        <time>2015-03-18T11:02:50Z</time>
      </trkpt>
      <trkpt lat="43.94895" lon="7.00786">
        <ele>409.66</ele>
        <time>2015-03-18T11:03:02Z</time>
      </trkpt>
      <trkpt lat="43.94899" lon="7.00788">
        <ele>412.06</ele>
        <time>2015-03-18T11:03:14Z</time>
      </trkpt>
      <trkpt lat="43.94901" lon="7.00789">
        <ele>413.5</ele>
        <time>2015-03-18T11:03:21Z</time>
      </trkpt>
      <trkpt lat="43.94904" lon="7.00794">
        <ele>414.95</ele>
        <time>2015-03-18T11:03:30Z</time>
      </trkpt>
      <trkpt lat="43.94909" lon="7.00797">
        <ele>416.39</ele>
        <time>2015-03-18T11:03:41Z</time>
      </trkpt>
      <trkpt lat="43.94907" lon="7.0079">
        <ele>417.35</ele>
        <time>2015-03-18T11:03:52Z</time>
      </trkpt>
      <trkpt lat="43.9491" lon="7.00783">
        <ele>419.27</ele>
        <time>2015-03-18T11:04:02Z</time>
      </trkpt>
      <trkpt lat="43.94916" lon="7.00784">
        <ele>420.71</ele>
        <time>2015-03-18T11:04:13Z</time>
      </trkpt>
      <trkpt lat="43.94917" lon="7.0079">
        <ele>422.16</ele>
        <time>2015-03-18T11:04:20Z</time>
      </trkpt>
      <trkpt lat="43.94919" lon="7.00796">
        <ele>422.64</ele>
        <time>2015-03-18T11:04:30Z</time>
      </trkpt>
      <trkpt lat="43.94917" lon="7.00795">
        <ele>422.16</ele>
        <time>2015-03-18T11:04:41Z</time>
      </trkpt>
      <trkpt lat="43.94917" lon="7.00796">
        <ele>422.16</ele>
        <time>2015-03-18T11:04:42Z</time>
      </trkpt>
      <trkpt lat="43.94912" lon="7.00784">
        <ele>421.19</ele>
        <time>2015-03-18T11:04:52Z</time>
      </trkpt>
      <trkpt lat="43.94911" lon="7.00783">
        <ele>420.71</ele>
        <time>2015-03-18T11:04:53Z</time>
      </trkpt>
      <trkpt lat="43.94909" lon="7.00774">
        <ele>420.23</ele>
        <time>2015-03-18T11:05:02Z</time>
      </trkpt>
      <trkpt lat="43.94917" lon="7.0077">
        <ele>423.12</ele>
        <time>2015-03-18T11:05:12Z</time>
      </trkpt>
      <trkpt lat="43.94918" lon="7.00769">
        <ele>423.6</ele>
        <time>2015-03-18T11:05:14Z</time>
      </trkpt>
      <trkpt lat="43.94922" lon="7.00767">
        <ele>424.56</ele>
        <time>2015-03-18T11:05:19Z</time>
      </trkpt>
      <trkpt lat="43.9493" lon="7.00771">
        <ele>426.96</ele>
        <time>2015-03-18T11:05:28Z</time>
      </trkpt>
      <trkpt lat="43.94927" lon="7.00773">
        <ele>429.37</ele>
        <time>2015-03-18T11:05:36Z</time>
      </trkpt>
      <trkpt lat="43.94927" lon="7.00775">
        <ele>431.29</ele>
        <time>2015-03-18T11:05:46Z</time>
      </trkpt>
      <trkpt lat="43.94923" lon="7.00782">
        <ele>432.25</ele>
        <time>2015-03-18T11:05:55Z</time>
      </trkpt>
      <trkpt lat="43.94922" lon="7.00782">
        <ele>432.73</ele>
        <time>2015-03-18T11:06:05Z</time>
      </trkpt>
      <trkpt lat="43.94922" lon="7.00781">
        <ele>432.73</ele>
        <time>2015-03-18T11:06:23Z</time>
      </trkpt>
      <trkpt lat="43.94922" lon="7.00779">
        <ele>432.73</ele>
        <time>2015-03-18T11:06:36Z</time>
      </trkpt>
      <trkpt lat="43.94922" lon="7.00781">
        <ele>432.73</ele>
        <time>2015-03-18T11:06:46Z</time>
      </trkpt>
      <trkpt lat="43.94922" lon="7.00779">
        <ele>432.73</ele>
        <time>2015-03-18T11:06:58Z</time>
      </trkpt>
      <trkpt lat="43.94922" lon="7.0078">
        <ele>432.25</ele>
        <time>2015-03-18T11:07:17Z</time>
      </trkpt>
      <trkpt lat="43.94923" lon="7.00782">
        <ele>432.25</ele>
        <time>2015-03-18T11:07:27Z</time>
      </trkpt>
      <trkpt lat="43.94928" lon="7.00778">
        <ele>433.21</ele>
        <time>2015-03-18T11:07:37Z</time>
      </trkpt>
      <trkpt lat="43.94927" lon="7.00776">
        <ele>430.81</ele>
        <time>2015-03-18T11:07:43Z</time>
      </trkpt>
      <trkpt lat="43.94927" lon="7.00768">
        <ele>427.44</ele>
        <time>2015-03-18T11:07:51Z</time>
      </trkpt>
      <trkpt lat="43.94925" lon="7.00765">
        <ele>425.52</ele>
        <time>2015-03-18T11:07:58Z</time>
      </trkpt>
      <trkpt lat="43.94917" lon="7.00769">
        <ele>423.12</ele>
        <time>2015-03-18T11:08:08Z</time>
      </trkpt>
      <trkpt lat="43.94908" lon="7.00777">
        <ele>419.75</ele>
        <time>2015-03-18T11:08:17Z</time>
      </trkpt>
      <trkpt lat="43.94911" lon="7.00784">
        <ele>419.75</ele>
        <time>2015-03-18T11:08:25Z</time>
      </trkpt>
      <trkpt lat="43.94915" lon="7.0079">
        <ele>420.71</ele>
        <time>2015-03-18T11:08:31Z</time>
      </trkpt>
      <trkpt lat="43.94922" lon="7.00799">
        <ele>421.68</ele>
        <time>2015-03-18T11:08:43Z</time>
      </trkpt>
      <trkpt lat="43.94928" lon="7.00806">
        <ele>421.68</ele>
        <time>2015-03-18T11:08:53Z</time>
      </trkpt>
      <trkpt lat="43.94929" lon="7.00809">
        <ele>422.16</ele>
        <time>2015-03-18T11:08:55Z</time>
      </trkpt>
      <trkpt lat="43.9493" lon="7.00828">
        <ele>423.12</ele>
        <time>2015-03-18T11:09:06Z</time>
      </trkpt>
      <trkpt lat="43.94932" lon="7.00846">
        <ele>423.6</ele>
        <time>2015-03-18T11:09:18Z</time>
      </trkpt>
      <trkpt lat="43.94935" lon="7.00854">
        <ele>423.6</ele>
        <time>2015-03-18T11:09:24Z</time>
      </trkpt>
      <trkpt lat="43.9494" lon="7.00868">
        <ele>423.6</ele>
        <time>2015-03-18T11:09:35Z</time>
      </trkpt>
      <trkpt lat="43.94943" lon="7.00876">
        <ele>424.08</ele>
        <time>2015-03-18T11:09:45Z</time>
      </trkpt>
      <trkpt lat="43.94945" lon="7.00886">
        <ele>425.04</ele>
        <time>2015-03-18T11:09:54Z</time>
      </trkpt>
      <trkpt lat="43.94945" lon="7.00897">
        <ele>426</ele>
        <time>2015-03-18T11:10:01Z</time>
      </trkpt>
      <trkpt lat="43.94945" lon="7.00902">
        <ele>426</ele>
        <time>2015-03-18T11:10:04Z</time>
      </trkpt>
      <trkpt lat="43.94948" lon="7.00915">
        <ele>427.44</ele>
        <time>2015-03-18T11:10:15Z</time>
      </trkpt>
      <trkpt lat="43.94951" lon="7.00917">
        <ele>429.37</ele>
        <time>2015-03-18T11:10:24Z</time>
      </trkpt>
      <trkpt lat="43.94955" lon="7.00927">
        <ele>431.29</ele>
        <time>2015-03-18T11:10:36Z</time>
      </trkpt>
      <trkpt lat="43.94956" lon="7.00938">
        <ele>432.25</ele>
        <time>2015-03-18T11:10:46Z</time>
      </trkpt>
      <trkpt lat="43.94957" lon="7.00946">
        <ele>431.77</ele>
        <time>2015-03-18T11:10:54Z</time>
      </trkpt>
      <trkpt lat="43.94957" lon="7.00963">
        <ele>430.81</ele>
        <time>2015-03-18T11:11:06Z</time>
      </trkpt>
      <trkpt lat="43.94958" lon="7.00978">
        <ele>430.81</ele>
        <time>2015-03-18T11:11:18Z</time>
      </trkpt>
      <trkpt lat="43.94959" lon="7.00992">
        <ele>431.29</ele>
        <time>2015-03-18T11:11:30Z</time>
      </trkpt>
      <trkpt lat="43.94958" lon="7.00993">
        <ele>431.77</ele>
        <time>2015-03-18T11:11:31Z</time>
      </trkpt>
      <trkpt lat="43.94955" lon="7.00998">
        <ele>431.77</ele>
        <time>2015-03-18T11:11:43Z</time>
      </trkpt>
      <trkpt lat="43.94956" lon="7.01004">
        <ele>432.25</ele>
        <time>2015-03-18T11:11:55Z</time>
      </trkpt>
      <trkpt lat="43.94953" lon="7.01018">
        <ele>433.69</ele>
        <time>2015-03-18T11:12:05Z</time>
      </trkpt>
      <trkpt lat="43.94954" lon="7.01019">
        <ele>433.69</ele>
        <time>2015-03-18T11:12:19Z</time>
      </trkpt>
      <trkpt lat="43.94956" lon="7.01025">
        <ele>433.69</ele>
        <time>2015-03-18T11:12:29Z</time>
      </trkpt>
      <trkpt lat="43.9496" lon="7.01039">
        <ele>434.65</ele>
        <time>2015-03-18T11:12:41Z</time>
      </trkpt>
      <trkpt lat="43.9496" lon="7.01044">
        <ele>434.65</ele>
        <time>2015-03-18T11:12:43Z</time>
      </trkpt>
      <trkpt lat="43.94957" lon="7.0106">
        <ele>433.69</ele>
        <time>2015-03-18T11:12:50Z</time>
      </trkpt>
      <trkpt lat="43.94954" lon="7.01071">
        <ele>432.73</ele>
        <time>2015-03-18T11:13:00Z</time>
      </trkpt>
      <trkpt lat="43.94955" lon="7.01075">
        <ele>434.65</ele>
        <time>2015-03-18T11:13:07Z</time>
      </trkpt>
      <trkpt lat="43.9496" lon="7.01083">
        <ele>434.17</ele>
        <time>2015-03-18T11:13:16Z</time>
      </trkpt>
      <trkpt lat="43.94961" lon="7.01086">
        <ele>433.69</ele>
        <time>2015-03-18T11:13:18Z</time>
      </trkpt>
      <trkpt lat="43.94962" lon="7.0109">
        <ele>433.69</ele>
        <time>2015-03-18T11:13:21Z</time>
      </trkpt>
      <trkpt lat="43.94962" lon="7.01106">
        <ele>434.65</ele>
        <time>2015-03-18T11:13:31Z</time>
      </trkpt>
      <trkpt lat="43.94955" lon="7.01119">
        <ele>436.58</ele>
        <time>2015-03-18T11:13:42Z</time>
      </trkpt>
      <trkpt lat="43.94949" lon="7.0113">
        <ele>437.06</ele>
        <time>2015-03-18T11:13:53Z</time>
      </trkpt>
      <trkpt lat="43.94944" lon="7.01131">
        <ele>439.46</ele>
        <time>2015-03-18T11:14:03Z</time>
      </trkpt>
      <trkpt lat="43.94939" lon="7.01135">
        <ele>441.86</ele>
        <time>2015-03-18T11:14:13Z</time>
      </trkpt>
      <trkpt lat="43.94939" lon="7.01133">
        <ele>441.86</ele>
        <time>2015-03-18T11:14:27Z</time>
      </trkpt>
      <trkpt lat="43.94939" lon="7.01133">
        <ele>441.86</ele>
        <time>2015-03-18T11:14:44Z</time>
      </trkpt>
      <trkpt lat="43.9494" lon="7.01135">
        <ele>442.34</ele>
        <time>2015-03-18T11:15:00Z</time>
      </trkpt>
      <trkpt lat="43.94942" lon="7.01136">
        <ele>442.82</ele>
        <time>2015-03-18T11:15:17Z</time>
      </trkpt>
      <trkpt lat="43.94942" lon="7.01137">
        <ele>444.27</ele>
        <time>2015-03-18T11:15:33Z</time>
      </trkpt>
      <trkpt lat="43.94947" lon="7.01141">
        <ele>446.19</ele>
        <time>2015-03-18T11:15:43Z</time>
      </trkpt>
      <trkpt lat="43.94948" lon="7.0115">
        <ele>448.11</ele>
        <time>2015-03-18T11:15:54Z</time>
      </trkpt>
      <trkpt lat="43.94953" lon="7.01152">
        <ele>449.55</ele>
        <time>2015-03-18T11:16:05Z</time>
      </trkpt>
      <trkpt lat="43.94956" lon="7.01153">
        <ele>451.48</ele>
        <time>2015-03-18T11:16:16Z</time>
      </trkpt>
      <trkpt lat="43.94959" lon="7.01154">
        <ele>454.36</ele>
        <time>2015-03-18T11:16:30Z</time>
      </trkpt>
      <trkpt lat="43.9496" lon="7.01156">
        <ele>455.8</ele>
        <time>2015-03-18T11:16:41Z</time>
      </trkpt>
      <trkpt lat="43.94963" lon="7.01161">
        <ele>457.72</ele>
        <time>2015-03-18T11:16:52Z</time>
      </trkpt>
      <trkpt lat="43.94968" lon="7.0116">
        <ele>459.17</ele>
        <time>2015-03-18T11:17:02Z</time>
      </trkpt>
      <trkpt lat="43.94971" lon="7.01157">
        <ele>461.57</ele>
        <time>2015-03-18T11:17:14Z</time>
      </trkpt>
      <trkpt lat="43.94974" lon="7.0115">
        <ele>463.97</ele>
        <time>2015-03-18T11:17:28Z</time>
      </trkpt>
      <trkpt lat="43.94976" lon="7.01141">
        <ele>465.9</ele>
        <time>2015-03-18T11:17:40Z</time>
      </trkpt>
      <trkpt lat="43.94981" lon="7.01137">
        <ele>466.86</ele>
        <time>2015-03-18T11:17:50Z</time>
      </trkpt>
      <trkpt lat="43.94982" lon="7.0114">
        <ele>468.78</ele>
        <time>2015-03-18T11:17:59Z</time>
      </trkpt>
      <trkpt lat="43.94982" lon="7.01144">
        <ele>469.74</ele>
        <time>2015-03-18T11:18:09Z</time>
      </trkpt>
      <trkpt lat="43.94984" lon="7.01154">
        <ele>471.18</ele>
        <time>2015-03-18T11:18:19Z</time>
      </trkpt>
      <trkpt lat="43.94984" lon="7.01155">
        <ele>471.66</ele>
        <time>2015-03-18T11:18:23Z</time>
      </trkpt>
      <trkpt lat="43.94982" lon="7.01171">
        <ele>474.55</ele>
        <time>2015-03-18T11:18:34Z</time>
      </trkpt>
      <trkpt lat="43.94981" lon="7.01178">
        <ele>475.51</ele>
        <time>2015-03-18T11:18:44Z</time>
      </trkpt>
      <trkpt lat="43.94981" lon="7.01185">
        <ele>475.03</ele>
        <time>2015-03-18T11:18:52Z</time>
      </trkpt>
      <trkpt lat="43.94978" lon="7.01192">
        <ele>475.51</ele>
        <time>2015-03-18T11:19:00Z</time>
      </trkpt>
      <trkpt lat="43.94979" lon="7.01204">
        <ele>477.91</ele>
        <time>2015-03-18T11:19:10Z</time>
      </trkpt>
      <trkpt lat="43.94977" lon="7.0121">
        <ele>480.32</ele>
        <time>2015-03-18T11:19:21Z</time>
      </trkpt>
      <trkpt lat="43.94974" lon="7.01213">
        <ele>481.76</ele>
        <time>2015-03-18T11:19:29Z</time>
      </trkpt>
      <trkpt lat="43.94968" lon="7.01211">
        <ele>484.16</ele>
        <time>2015-03-18T11:19:39Z</time>
      </trkpt>
      <trkpt lat="43.94968" lon="7.01211">
        <ele>486.08</ele>
        <time>2015-03-18T11:19:50Z</time>
      </trkpt>
      <trkpt lat="43.94965" lon="7.01213">
        <ele>488.49</ele>
        <time>2015-03-18T11:20:02Z</time>
      </trkpt>
      <trkpt lat="43.94963" lon="7.01216">
        <ele>489.93</ele>
        <time>2015-03-18T11:20:13Z</time>
      </trkpt>
      <trkpt lat="43.94963" lon="7.01215">
        <ele>489.45</ele>
        <time>2015-03-18T11:20:34Z</time>
      </trkpt>
      <trkpt lat="43.94961" lon="7.01217">
        <ele>489.93</ele>
        <time>2015-03-18T11:20:53Z</time>
      </trkpt>
      <trkpt lat="43.94959" lon="7.01225">
        <ele>490.89</ele>
        <time>2015-03-18T11:21:04Z</time>
      </trkpt>
      <trkpt lat="43.94959" lon="7.01244">
        <ele>490.89</ele>
        <time>2015-03-18T11:21:17Z</time>
      </trkpt>
      <trkpt lat="43.94955" lon="7.01253">
        <ele>491.37</ele>
        <time>2015-03-18T11:21:28Z</time>
      </trkpt>
      <trkpt lat="43.94955" lon="7.01262">
        <ele>493.77</ele>
        <time>2015-03-18T11:21:39Z</time>
      </trkpt>
      <trkpt lat="43.94951" lon="7.01267">
        <ele>495.7</ele>
        <time>2015-03-18T11:21:50Z</time>
      </trkpt>
      <trkpt lat="43.94947" lon="7.01271">
        <ele>498.1</ele>
        <time>2015-03-18T11:22:03Z</time>
      </trkpt>
      <trkpt lat="43.94946" lon="7.01275">
        <ele>499.54</ele>
        <time>2015-03-18T11:22:12Z</time>
      </trkpt>
      <trkpt lat="43.94946" lon="7.01274">
        <ele>499.54</ele>
        <time>2015-03-18T11:22:31Z</time>
      </trkpt>
      <trkpt lat="43.94946" lon="7.01277">
        <ele>499.54</ele>
        <time>2015-03-18T11:22:41Z</time>
      </trkpt>
      <trkpt lat="43.94951" lon="7.01286">
        <ele>499.06</ele>
        <time>2015-03-18T11:22:51Z</time>
      </trkpt>
      <trkpt lat="43.9496" lon="7.01294">
        <ele>500.02</ele>
        <time>2015-03-18T11:23:02Z</time>
      </trkpt>
      <trkpt lat="43.94968" lon="7.01306">
        <ele>500.02</ele>
        <time>2015-03-18T11:23:15Z</time>
      </trkpt>
      <trkpt lat="43.94975" lon="7.01309">
        <ele>498.58</ele>
        <time>2015-03-18T11:23:27Z</time>
      </trkpt>
      <trkpt lat="43.94978" lon="7.01312">
        <ele>498.1</ele>
        <time>2015-03-18T11:23:34Z</time>
      </trkpt>
      <trkpt lat="43.94984" lon="7.01318">
        <ele>498.1</ele>
        <time>2015-03-18T11:23:44Z</time>
      </trkpt>
      <trkpt lat="43.94992" lon="7.01311">
        <ele>500.98</ele>
        <time>2015-03-18T11:23:57Z</time>
      </trkpt>
      <trkpt lat="43.94995" lon="7.01313">
        <ele>502.43</ele>
        <time>2015-03-18T11:24:05Z</time>
      </trkpt>
      <trkpt lat="43.94997" lon="7.01317">
        <ele>504.35</ele>
        <time>2015-03-18T11:24:14Z</time>
      </trkpt>
      <trkpt lat="43.94997" lon="7.01321">
        <ele>504.83</ele>
        <time>2015-03-18T11:24:19Z</time>
      </trkpt>
      <trkpt lat="43.94999" lon="7.01331">
        <ele>505.79</ele>
        <time>2015-03-18T11:24:27Z</time>
      </trkpt>
      <trkpt lat="43.95001" lon="7.01335">
        <ele>506.27</ele>
        <time>2015-03-18T11:24:30Z</time>
      </trkpt>
      <trkpt lat="43.95006" lon="7.01341">
        <ele>506.27</ele>
        <time>2015-03-18T11:24:38Z</time>
      </trkpt>
      <trkpt lat="43.9501" lon="7.01346">
        <ele>506.27</ele>
        <time>2015-03-18T11:24:44Z</time>
      </trkpt>
      <trkpt lat="43.95017" lon="7.01362">
        <ele>503.87</ele>
        <time>2015-03-18T11:24:56Z</time>
      </trkpt>
      <trkpt lat="43.95019" lon="7.01367">
        <ele>502.43</ele>
        <time>2015-03-18T11:25:03Z</time>
      </trkpt>
      <trkpt lat="43.95017" lon="7.01367">
        <ele>501.95</ele>
        <time>2015-03-18T11:25:06Z</time>
      </trkpt>
      <trkpt lat="43.95011" lon="7.01386">
        <ele>503.39</ele>
        <time>2015-03-18T11:25:17Z</time>
      </trkpt>
      <trkpt lat="43.95004" lon="7.01397">
        <ele>505.79</ele>
        <time>2015-03-18T11:25:27Z</time>
      </trkpt>
      <trkpt lat="43.94998" lon="7.01399">
        <ele>508.67</ele>
        <time>2015-03-18T11:25:38Z</time>
      </trkpt>
      <trkpt lat="43.94995" lon="7.01401">
        <ele>510.6</ele>
        <time>2015-03-18T11:25:51Z</time>
      </trkpt>
      <trkpt lat="43.94996" lon="7.01404">
        <ele>513</ele>
        <time>2015-03-18T11:26:02Z</time>
      </trkpt>
      <trkpt lat="43.94993" lon="7.01408">
        <ele>515.4</ele>
        <time>2015-03-18T11:26:13Z</time>
      </trkpt>
      <trkpt lat="43.94988" lon="7.0141">
        <ele>516.37</ele>
        <time>2015-03-18T11:26:24Z</time>
      </trkpt>
      <trkpt lat="43.94988" lon="7.01409">
        <ele>516.37</ele>
        <time>2015-03-18T11:26:46Z</time>
      </trkpt>
      <trkpt lat="43.94983" lon="7.01408">
        <ele>517.33</ele>
        <time>2015-03-18T11:26:59Z</time>
      </trkpt>
      <trkpt lat="43.9498" lon="7.0141">
        <ele>519.25</ele>
        <time>2015-03-18T11:27:09Z</time>
      </trkpt>
      <trkpt lat="43.9498" lon="7.01411">
        <ele>521.17</ele>
        <time>2015-03-18T11:27:20Z</time>
      </trkpt>
      <trkpt lat="43.94976" lon="7.01415">
        <ele>523.58</ele>
        <time>2015-03-18T11:27:31Z</time>
      </trkpt>
      <trkpt lat="43.94976" lon="7.01416">
        <ele>525.98</ele>
        <time>2015-03-18T11:27:45Z</time>
      </trkpt>
      <trkpt lat="43.9497" lon="7.0142">
        <ele>527.9</ele>
        <time>2015-03-18T11:27:56Z</time>
      </trkpt>
      <trkpt lat="43.94964" lon="7.01425">
        <ele>529.34</ele>
        <time>2015-03-18T11:28:06Z</time>
      </trkpt>
      <trkpt lat="43.94964" lon="7.01434">
        <ele>531.75</ele>
        <time>2015-03-18T11:28:17Z</time>
      </trkpt>
      <trkpt lat="43.94966" lon="7.01443">
        <ele>534.15</ele>
        <time>2015-03-18T11:28:29Z</time>
      </trkpt>
      <trkpt lat="43.94968" lon="7.01445">
        <ele>535.59</ele>
        <time>2015-03-18T11:28:40Z</time>
      </trkpt>
      <trkpt lat="43.94972" lon="7.01444">
        <ele>537.51</ele>
        <time>2015-03-18T11:28:50Z</time>
      </trkpt>
      <trkpt lat="43.94976" lon="7.0145">
        <ele>539.44</ele>
        <time>2015-03-18T11:29:00Z</time>
      </trkpt>
      <trkpt lat="43.94982" lon="7.01455">
        <ele>541.36</ele>
        <time>2015-03-18T11:29:12Z</time>
      </trkpt>
      <trkpt lat="43.94987" lon="7.01459">
        <ele>544.24</ele>
        <time>2015-03-18T11:29:25Z</time>
      </trkpt>
      <trkpt lat="43.94992" lon="7.01465">
        <ele>545.69</ele>
        <time>2015-03-18T11:29:36Z</time>
      </trkpt>
      <trkpt lat="43.94994" lon="7.01476">
        <ele>547.13</ele>
        <time>2015-03-18T11:29:48Z</time>
      </trkpt>
      <trkpt lat="43.94998" lon="7.01482">
        <ele>549.05</ele>
        <time>2015-03-18T11:30:01Z</time>
      </trkpt>
      <trkpt lat="43.95" lon="7.01487">
        <ele>550.97</ele>
        <time>2015-03-18T11:30:11Z</time>
      </trkpt>
      <trkpt lat="43.95005" lon="7.01491">
        <ele>552.41</ele>
        <time>2015-03-18T11:30:22Z</time>
      </trkpt>
      <trkpt lat="43.95007" lon="7.01502">
        <ele>553.86</ele>
        <time>2015-03-18T11:30:33Z</time>
      </trkpt>
      <trkpt lat="43.95011" lon="7.01514">
        <ele>555.3</ele>
        <time>2015-03-18T11:30:43Z</time>
      </trkpt>
      <trkpt lat="43.95015" lon="7.01527">
        <ele>557.7</ele>
        <time>2015-03-18T11:30:55Z</time>
      </trkpt>
      <trkpt lat="43.95018" lon="7.01537">
        <ele>557.7</ele>
        <time>2015-03-18T11:31:04Z</time>
      </trkpt>
      <trkpt lat="43.95016" lon="7.01547">
        <ele>559.62</ele>
        <time>2015-03-18T11:31:14Z</time>
      </trkpt>
      <trkpt lat="43.95012" lon="7.01552">
        <ele>561.55</ele>
        <time>2015-03-18T11:31:23Z</time>
      </trkpt>
      <trkpt lat="43.95009" lon="7.0156">
        <ele>562.99</ele>
        <time>2015-03-18T11:31:33Z</time>
      </trkpt>
      <trkpt lat="43.9501" lon="7.01569">
        <ele>564.91</ele>
        <time>2015-03-18T11:31:43Z</time>
      </trkpt>
      <trkpt lat="43.95007" lon="7.01579">
        <ele>565.87</ele>
        <time>2015-03-18T11:31:54Z</time>
      </trkpt>
      <trkpt lat="43.95007" lon="7.01579">
        <ele>566.35</ele>
        <time>2015-03-18T11:31:56Z</time>
      </trkpt>
      <trkpt lat="43.95006" lon="7.01592">
        <ele>567.32</ele>
        <time>2015-03-18T11:32:06Z</time>
      </trkpt>
      <trkpt lat="43.95007" lon="7.01604">
        <ele>567.32</ele>
        <time>2015-03-18T11:32:16Z</time>
      </trkpt>
      <trkpt lat="43.95005" lon="7.01618">
        <ele>567.8</ele>
        <time>2015-03-18T11:32:26Z</time>
      </trkpt>
      <trkpt lat="43.95005" lon="7.01621">
        <ele>567.8</ele>
        <time>2015-03-18T11:32:28Z</time>
      </trkpt>
      <trkpt lat="43.95009" lon="7.01633">
        <ele>567.32</ele>
        <time>2015-03-18T11:32:38Z</time>
      </trkpt>
      <trkpt lat="43.95016" lon="7.01635">
        <ele>566.83</ele>
        <time>2015-03-18T11:32:47Z</time>
      </trkpt>
      <trkpt lat="43.95019" lon="7.01637">
        <ele>566.83</ele>
        <time>2015-03-18T11:32:50Z</time>
      </trkpt>
      <trkpt lat="43.95028" lon="7.01637">
        <ele>568.28</ele>
        <time>2015-03-18T11:33:00Z</time>
      </trkpt>
      <trkpt lat="43.95033" lon="7.01642">
        <ele>570.2</ele>
        <time>2015-03-18T11:33:11Z</time>
      </trkpt>
      <trkpt lat="43.95036" lon="7.01653">
        <ele>571.64</ele>
        <time>2015-03-18T11:33:21Z</time>
      </trkpt>
      <trkpt lat="43.95039" lon="7.01668">
        <ele>572.6</ele>
        <time>2015-03-18T11:33:27Z</time>
      </trkpt>
      <trkpt lat="43.95036" lon="7.01688">
        <ele>574.04</ele>
        <time>2015-03-18T11:33:37Z</time>
      </trkpt>
      <trkpt lat="43.95031" lon="7.01692">
        <ele>576.45</ele>
        <time>2015-03-18T11:33:48Z</time>
      </trkpt>
      <trkpt lat="43.95027" lon="7.01696">
        <ele>578.37</ele>
        <time>2015-03-18T11:33:57Z</time>
      </trkpt>
      <trkpt lat="43.95024" lon="7.01704">
        <ele>579.81</ele>
        <time>2015-03-18T11:34:08Z</time>
      </trkpt>
      <trkpt lat="43.95022" lon="7.01713">
        <ele>581.73</ele>
        <time>2015-03-18T11:34:18Z</time>
      </trkpt>
      <trkpt lat="43.95021" lon="7.0172">
        <ele>583.18</ele>
        <time>2015-03-18T11:34:27Z</time>
      </trkpt>
      <trkpt lat="43.95022" lon="7.01726">
        <ele>584.62</ele>
        <time>2015-03-18T11:34:36Z</time>
      </trkpt>
      <trkpt lat="43.95027" lon="7.01728">
        <ele>585.58</ele>
        <time>2015-03-18T11:34:45Z</time>
      </trkpt>
      <trkpt lat="43.9503" lon="7.0173">
        <ele>586.06</ele>
        <time>2015-03-18T11:34:47Z</time>
      </trkpt>
      <trkpt lat="43.95034" lon="7.01735">
        <ele>585.58</ele>
        <time>2015-03-18T11:34:53Z</time>
      </trkpt>
      <trkpt lat="43.95041" lon="7.01744">
        <ele>587.02</ele>
        <time>2015-03-18T11:35:02Z</time>
      </trkpt>
      <trkpt lat="43.95043" lon="7.01747">
        <ele>586.54</ele>
        <time>2015-03-18T11:35:05Z</time>
      </trkpt>
      <trkpt lat="43.95048" lon="7.01756">
        <ele>586.06</ele>
        <time>2015-03-18T11:35:16Z</time>
      </trkpt>
      <trkpt lat="43.95048" lon="7.01767">
        <ele>586.54</ele>
        <time>2015-03-18T11:35:26Z</time>
      </trkpt>
      <trkpt lat="43.95046" lon="7.01778">
        <ele>588.46</ele>
        <time>2015-03-18T11:35:36Z</time>
      </trkpt>
      <trkpt lat="43.95045" lon="7.01791">
        <ele>588.95</ele>
        <time>2015-03-18T11:35:46Z</time>
      </trkpt>
      <trkpt lat="43.95045" lon="7.01799">
        <ele>588.95</ele>
        <time>2015-03-18T11:35:55Z</time>
      </trkpt>
      <trkpt lat="43.95042" lon="7.01811">
        <ele>590.87</ele>
        <time>2015-03-18T11:36:07Z</time>
      </trkpt>
      <trkpt lat="43.95037" lon="7.0182">
        <ele>593.27</ele>
        <time>2015-03-18T11:36:17Z</time>
      </trkpt>
      <trkpt lat="43.9503" lon="7.0183">
        <ele>593.75</ele>
        <time>2015-03-18T11:36:27Z</time>
      </trkpt>
      <trkpt lat="43.95026" lon="7.01842">
        <ele>595.19</ele>
        <time>2015-03-18T11:36:38Z</time>
      </trkpt>
      <trkpt lat="43.95025" lon="7.01851">
        <ele>595.19</ele>
        <time>2015-03-18T11:36:44Z</time>
      </trkpt>
      <trkpt lat="43.95021" lon="7.01862">
        <ele>595.67</ele>
        <time>2015-03-18T11:36:53Z</time>
      </trkpt>
      <trkpt lat="43.95019" lon="7.01864">
        <ele>595.67</ele>
        <time>2015-03-18T11:36:55Z</time>
      </trkpt>
      <trkpt lat="43.95016" lon="7.01879">
        <ele>596.64</ele>
        <time>2015-03-18T11:37:04Z</time>
      </trkpt>
      <trkpt lat="43.95014" lon="7.01884">
        <ele>597.12</ele>
        <time>2015-03-18T11:37:08Z</time>
      </trkpt>
      <trkpt lat="43.95011" lon="7.01895">
        <ele>598.08</ele>
        <time>2015-03-18T11:37:18Z</time>
      </trkpt>
      <trkpt lat="43.95007" lon="7.01905">
        <ele>599.04</ele>
        <time>2015-03-18T11:37:28Z</time>
      </trkpt>
      <trkpt lat="43.95008" lon="7.01912">
        <ele>599.04</ele>
        <time>2015-03-18T11:37:38Z</time>
      </trkpt>
      <trkpt lat="43.95016" lon="7.01914">
        <ele>598.08</ele>
        <time>2015-03-18T11:37:50Z</time>
      </trkpt>
      <trkpt lat="43.9502" lon="7.01914">
        <ele>597.6</ele>
        <time>2015-03-18T11:37:53Z</time>
      </trkpt>
      <trkpt lat="43.95033" lon="7.01914">
        <ele>596.64</ele>
        <time>2015-03-18T11:38:05Z</time>
      </trkpt>
      <trkpt lat="43.95037" lon="7.01913">
        <ele>596.15</ele>
        <time>2015-03-18T11:38:08Z</time>
      </trkpt>
      <trkpt lat="43.95043" lon="7.01915">
        <ele>594.71</ele>
        <time>2015-03-18T11:38:12Z</time>
      </trkpt>
      <trkpt lat="43.9505" lon="7.01916">
        <ele>594.71</ele>
        <time>2015-03-18T11:38:17Z</time>
      </trkpt>
      <trkpt lat="43.95055" lon="7.01916">
        <ele>593.75</ele>
        <time>2015-03-18T11:38:21Z</time>
      </trkpt>
      <trkpt lat="43.95066" lon="7.01919">
        <ele>594.23</ele>
        <time>2015-03-18T11:38:32Z</time>
      </trkpt>
      <trkpt lat="43.95069" lon="7.01922">
        <ele>594.23</ele>
        <time>2015-03-18T11:38:36Z</time>
      </trkpt>
      <trkpt lat="43.95072" lon="7.01922">
        <ele>594.23</ele>
        <time>2015-03-18T11:38:38Z</time>
      </trkpt>
      <trkpt lat="43.95078" lon="7.01925">
        <ele>593.75</ele>
        <time>2015-03-18T11:38:48Z</time>
      </trkpt>
      <trkpt lat="43.9508" lon="7.01927">
        <ele>593.75</ele>
        <time>2015-03-18T11:38:59Z</time>
      </trkpt>
      <trkpt lat="43.9509" lon="7.01928">
        <ele>592.79</ele>
        <time>2015-03-18T11:39:10Z</time>
      </trkpt>
      <trkpt lat="43.95091" lon="7.01927">
        <ele>592.79</ele>
        <time>2015-03-18T11:39:11Z</time>
      </trkpt>
      <trkpt lat="43.95098" lon="7.01926">
        <ele>592.31</ele>
        <time>2015-03-18T11:39:18Z</time>
      </trkpt>
      <trkpt lat="43.95107" lon="7.01925">
        <ele>592.79</ele>
        <time>2015-03-18T11:39:27Z</time>
      </trkpt>
      <trkpt lat="43.95117" lon="7.01919">
        <ele>592.31</ele>
        <time>2015-03-18T11:39:38Z</time>
      </trkpt>
      <trkpt lat="43.95129" lon="7.01919">
        <ele>592.31</ele>
        <time>2015-03-18T11:39:47Z</time>
      </trkpt>
      <trkpt lat="43.95133" lon="7.01931">
        <ele>592.79</ele>
        <time>2015-03-18T11:39:56Z</time>
      </trkpt>
      <trkpt lat="43.95137" lon="7.01943">
        <ele>591.35</ele>
        <time>2015-03-18T11:40:08Z</time>
      </trkpt>
      <trkpt lat="43.9514" lon="7.0195">
        <ele>591.35</ele>
        <time>2015-03-18T11:40:19Z</time>
      </trkpt>
      <trkpt lat="43.95141" lon="7.01953">
        <ele>592.31</ele>
        <time>2015-03-18T11:40:29Z</time>
      </trkpt>
      <trkpt lat="43.95143" lon="7.01956">
        <ele>592.31</ele>
        <time>2015-03-18T11:40:40Z</time>
      </trkpt>
      <trkpt lat="43.95146" lon="7.01968">
        <ele>591.83</ele>
        <time>2015-03-18T11:40:57Z</time>
      </trkpt>
      <trkpt lat="43.95147" lon="7.01976">
        <ele>592.31</ele>
        <time>2015-03-18T11:41:13Z</time>
      </trkpt>
      <trkpt lat="43.95147" lon="7.01992">
        <ele>591.35</ele>
        <time>2015-03-18T11:41:24Z</time>
      </trkpt>
      <trkpt lat="43.95148" lon="7.01996">
        <ele>591.35</ele>
        <time>2015-03-18T11:41:31Z</time>
      </trkpt>
      <trkpt lat="43.95147" lon="7.02002">
        <ele>591.83</ele>
        <time>2015-03-18T11:41:48Z</time>
      </trkpt>
      <trkpt lat="43.95146" lon="7.02005">
        <ele>591.35</ele>
        <time>2015-03-18T11:41:50Z</time>
      </trkpt>
      <trkpt lat="43.95144" lon="7.0201">
        <ele>591.35</ele>
        <time>2015-03-18T11:41:53Z</time>
      </trkpt>
      <trkpt lat="43.95144" lon="7.02023">
        <ele>590.87</ele>
        <time>2015-03-18T11:42:02Z</time>
      </trkpt>
      <trkpt lat="43.95141" lon="7.02039">
        <ele>590.87</ele>
        <time>2015-03-18T11:42:13Z</time>
      </trkpt>
      <trkpt lat="43.9514" lon="7.02052">
        <ele>592.31</ele>
        <time>2015-03-18T11:42:24Z</time>
      </trkpt>
      <trkpt lat="43.95144" lon="7.02063">
        <ele>595.19</ele>
        <time>2015-03-18T11:42:36Z</time>
      </trkpt>
      <trkpt lat="43.95145" lon="7.02065">
        <ele>595.67</ele>
        <time>2015-03-18T11:42:38Z</time>
      </trkpt>
      <trkpt lat="43.95146" lon="7.02073">
        <ele>598.08</ele>
        <time>2015-03-18T11:42:49Z</time>
      </trkpt>
      <trkpt lat="43.95145" lon="7.02081">
        <ele>600</ele>
        <time>2015-03-18T11:42:59Z</time>
      </trkpt>
      <trkpt lat="43.95139" lon="7.02092">
        <ele>600.48</ele>
        <time>2015-03-18T11:43:10Z</time>
      </trkpt>
      <trkpt lat="43.95141" lon="7.02097">
        <ele>600.48</ele>
        <time>2015-03-18T11:43:20Z</time>
      </trkpt>
      <trkpt lat="43.95137" lon="7.02109">
        <ele>601.44</ele>
        <time>2015-03-18T11:43:31Z</time>
      </trkpt>
      <trkpt lat="43.95136" lon="7.02117">
        <ele>603.85</ele>
        <time>2015-03-18T11:43:43Z</time>
      </trkpt>
      <trkpt lat="43.95134" lon="7.02123">
        <ele>605.77</ele>
        <time>2015-03-18T11:43:54Z</time>
      </trkpt>
      <trkpt lat="43.95134" lon="7.02125">
        <ele>608.17</ele>
        <time>2015-03-18T11:44:06Z</time>
      </trkpt>
      <trkpt lat="43.95131" lon="7.02127">
        <ele>610.57</ele>
        <time>2015-03-18T11:44:18Z</time>
      </trkpt>
      <trkpt lat="43.95128" lon="7.02131">
        <ele>612.98</ele>
        <time>2015-03-18T11:44:31Z</time>
      </trkpt>
      <trkpt lat="43.95122" lon="7.02137">
        <ele>615.38</ele>
        <time>2015-03-18T11:44:43Z</time>
      </trkpt>
      <trkpt lat="43.95114" lon="7.02143">
        <ele>617.3</ele>
        <time>2015-03-18T11:44:53Z</time>
      </trkpt>
      <trkpt lat="43.95111" lon="7.0215">
        <ele>619.23</ele>
        <time>2015-03-18T11:45:03Z</time>
      </trkpt>
      <trkpt lat="43.95109" lon="7.02159">
        <ele>621.15</ele>
        <time>2015-03-18T11:45:13Z</time>
      </trkpt>
      <trkpt lat="43.9511" lon="7.02169">
        <ele>623.07</ele>
        <time>2015-03-18T11:45:26Z</time>
      </trkpt>
      <trkpt lat="43.95114" lon="7.02175">
        <ele>625.47</ele>
        <time>2015-03-18T11:45:40Z</time>
      </trkpt>
      <trkpt lat="43.95116" lon="7.02174">
        <ele>626.44</ele>
        <time>2015-03-18T11:45:51Z</time>
      </trkpt>
      <trkpt lat="43.95115" lon="7.02174">
        <ele>626.44</ele>
        <time>2015-03-18T11:46:13Z</time>
      </trkpt>
      <trkpt lat="43.95117" lon="7.02172">
        <ele>627.88</ele>
        <time>2015-03-18T11:46:32Z</time>
      </trkpt>
      <trkpt lat="43.95123" lon="7.02167">
        <ele>629.8</ele>
        <time>2015-03-18T11:46:43Z</time>
      </trkpt>
      <trkpt lat="43.95127" lon="7.02165">
        <ele>632.68</ele>
        <time>2015-03-18T11:46:56Z</time>
      </trkpt>
      <trkpt lat="43.95132" lon="7.02168">
        <ele>634.61</ele>
        <time>2015-03-18T11:47:07Z</time>
      </trkpt>
      <trkpt lat="43.95138" lon="7.02167">
        <ele>637.01</ele>
        <time>2015-03-18T11:47:20Z</time>
      </trkpt>
      <trkpt lat="43.95139" lon="7.02173">
        <ele>638.45</ele>
        <time>2015-03-18T11:47:29Z</time>
      </trkpt>
      <trkpt lat="43.95139" lon="7.0218">
        <ele>640.38</ele>
        <time>2015-03-18T11:47:41Z</time>
      </trkpt>
      <trkpt lat="43.95141" lon="7.02182">
        <ele>641.34</ele>
        <time>2015-03-18T11:47:45Z</time>
      </trkpt>
      <trkpt lat="43.95148" lon="7.02188">
        <ele>641.34</ele>
        <time>2015-03-18T11:47:54Z</time>
      </trkpt>
      <trkpt lat="43.95154" lon="7.02192">
        <ele>641.82</ele>
        <time>2015-03-18T11:48:03Z</time>
      </trkpt>
      <trkpt lat="43.95159" lon="7.02197">
        <ele>643.74</ele>
        <time>2015-03-18T11:48:13Z</time>
      </trkpt>
      <trkpt lat="43.95165" lon="7.02199">
        <ele>645.18</ele>
        <time>2015-03-18T11:48:24Z</time>
      </trkpt>
      <trkpt lat="43.9517" lon="7.02204">
        <ele>646.62</ele>
        <time>2015-03-18T11:48:32Z</time>
      </trkpt>
      <trkpt lat="43.95173" lon="7.02213">
        <ele>648.07</ele>
        <time>2015-03-18T11:48:42Z</time>
      </trkpt>
      <trkpt lat="43.95176" lon="7.02229">
        <ele>649.51</ele>
        <time>2015-03-18T11:48:54Z</time>
      </trkpt>
      <trkpt lat="43.95177" lon="7.02243">
        <ele>651.43</ele>
        <time>2015-03-18T11:49:04Z</time>
      </trkpt>
      <trkpt lat="43.95179" lon="7.02257">
        <ele>653.35</ele>
        <time>2015-03-18T11:49:17Z</time>
      </trkpt>
      <trkpt lat="43.95181" lon="7.02265">
        <ele>655.76</ele>
        <time>2015-03-18T11:49:27Z</time>
      </trkpt>
      <trkpt lat="43.95183" lon="7.0227">
        <ele>657.68</ele>
        <time>2015-03-18T11:49:35Z</time>
      </trkpt>
      <trkpt lat="43.95184" lon="7.02281">
        <ele>658.64</ele>
        <time>2015-03-18T11:49:46Z</time>
      </trkpt>
      <trkpt lat="43.95186" lon="7.02294">
        <ele>661.04</ele>
        <time>2015-03-18T11:49:59Z</time>
      </trkpt>
      <trkpt lat="43.9519" lon="7.02302">
        <ele>662.01</ele>
        <time>2015-03-18T11:50:09Z</time>
      </trkpt>
      <trkpt lat="43.95193" lon="7.02313">
        <ele>663.45</ele>
        <time>2015-03-18T11:50:20Z</time>
      </trkpt>
      <trkpt lat="43.95194" lon="7.02313">
        <ele>663.45</ele>
        <time>2015-03-18T11:50:21Z</time>
      </trkpt>
      <trkpt lat="43.95196" lon="7.02328">
        <ele>663.45</ele>
        <time>2015-03-18T11:50:31Z</time>
      </trkpt>
      <trkpt lat="43.95199" lon="7.02341">
        <ele>665.37</ele>
        <time>2015-03-18T11:50:43Z</time>
      </trkpt>
      <trkpt lat="43.95205" lon="7.02347">
        <ele>667.29</ele>
        <time>2015-03-18T11:50:53Z</time>
      </trkpt>
      <trkpt lat="43.95208" lon="7.02358">
        <ele>669.22</ele>
        <time>2015-03-18T11:51:02Z</time>
      </trkpt>
      <trkpt lat="43.95212" lon="7.02365">
        <ele>671.14</ele>
        <time>2015-03-18T11:51:13Z</time>
      </trkpt>
      <trkpt lat="43.95215" lon="7.02368">
        <ele>672.1</ele>
        <time>2015-03-18T11:51:21Z</time>
      </trkpt>
      <trkpt lat="43.9522" lon="7.02373">
        <ele>674.02</ele>
        <time>2015-03-18T11:51:30Z</time>
      </trkpt>
      <trkpt lat="43.95222" lon="7.02376">
        <ele>675.46</ele>
        <time>2015-03-18T11:51:41Z</time>
      </trkpt>
      <trkpt lat="43.95223" lon="7.02383">
        <ele>677.39</ele>
        <time>2015-03-18T11:51:53Z</time>
      </trkpt>
      <trkpt lat="43.95225" lon="7.02388">
        <ele>679.31</ele>
        <time>2015-03-18T11:52:03Z</time>
      </trkpt>
      <trkpt lat="43.9523" lon="7.02392">
        <ele>680.75</ele>
        <time>2015-03-18T11:52:13Z</time>
      </trkpt>
      <trkpt lat="43.95231" lon="7.02397">
        <ele>682.19</ele>
        <time>2015-03-18T11:52:24Z</time>
      </trkpt>
      <trkpt lat="43.95232" lon="7.02397">
        <ele>684.6</ele>
        <time>2015-03-18T11:52:36Z</time>
      </trkpt>
      <trkpt lat="43.95236" lon="7.02396">
        <ele>686.04</ele>
        <time>2015-03-18T11:52:45Z</time>
      </trkpt>
      <trkpt lat="43.9524" lon="7.02401">
        <ele>687</ele>
        <time>2015-03-18T11:52:55Z</time>
      </trkpt>
      <trkpt lat="43.95242" lon="7.02407">
        <ele>689.4</ele>
        <time>2015-03-18T11:53:07Z</time>
      </trkpt>
      <trkpt lat="43.95243" lon="7.02412">
        <ele>689.4</ele>
        <time>2015-03-18T11:53:19Z</time>
      </trkpt>
      <trkpt lat="43.95242" lon="7.02415">
        <ele>689.4</ele>
        <time>2015-03-18T11:53:40Z</time>
      </trkpt>
      <trkpt lat="43.95242" lon="7.02415">
        <ele>689.88</ele>
        <time>2015-03-18T11:53:59Z</time>
      </trkpt>
      <trkpt lat="43.95242" lon="7.02416">
        <ele>689.88</ele>
        <time>2015-03-18T11:54:24Z</time>
      </trkpt>
      <trkpt lat="43.95243" lon="7.02413">
        <ele>690.36</ele>
        <time>2015-03-18T11:54:44Z</time>
      </trkpt>
      <trkpt lat="43.95246" lon="7.02415">
        <ele>693.25</ele>
        <time>2015-03-18T11:54:56Z</time>
      </trkpt>
      <trkpt lat="43.95251" lon="7.02418">
        <ele>694.69</ele>
        <time>2015-03-18T11:55:04Z</time>
      </trkpt>
      <trkpt lat="43.9526" lon="7.0242">
        <ele>694.21</ele>
        <time>2015-03-18T11:55:15Z</time>
      </trkpt>
      <trkpt lat="43.95266" lon="7.0242">
        <ele>694.21</ele>
        <time>2015-03-18T11:55:24Z</time>
      </trkpt>
      <trkpt lat="43.95266" lon="7.02419">
        <ele>694.69</ele>
        <time>2015-03-18T11:55:25Z</time>
      </trkpt>
      <trkpt lat="43.95272" lon="7.02416">
        <ele>696.13</ele>
        <time>2015-03-18T11:55:35Z</time>
      </trkpt>
      <trkpt lat="43.95278" lon="7.02418">
        <ele>697.09</ele>
        <time>2015-03-18T11:55:45Z</time>
      </trkpt>
      <trkpt lat="43.95284" lon="7.02413">
        <ele>697.57</ele>
        <time>2015-03-18T11:55:57Z</time>
      </trkpt>
      <trkpt lat="43.95292" lon="7.0241">
        <ele>698.53</ele>
        <time>2015-03-18T11:56:07Z</time>
      </trkpt>
      <trkpt lat="43.953" lon="7.02408">
        <ele>699.02</ele>
        <time>2015-03-18T11:56:16Z</time>
      </trkpt>
      <trkpt lat="43.95312" lon="7.02404">
        <ele>699.5</ele>
        <time>2015-03-18T11:56:26Z</time>
      </trkpt>
      <trkpt lat="43.95321" lon="7.02404">
        <ele>699.98</ele>
        <time>2015-03-18T11:56:33Z</time>
      </trkpt>
      <trkpt lat="43.9533" lon="7.02402">
        <ele>701.42</ele>
        <time>2015-03-18T11:56:43Z</time>
      </trkpt>
      <trkpt lat="43.95337" lon="7.02407">
        <ele>703.82</ele>
        <time>2015-03-18T11:56:56Z</time>
      </trkpt>
      <trkpt lat="43.9534" lon="7.02411">
        <ele>704.78</ele>
        <time>2015-03-18T11:57:05Z</time>
      </trkpt>
      <trkpt lat="43.95346" lon="7.02408">
        <ele>705.75</ele>
        <time>2015-03-18T11:57:16Z</time>
      </trkpt>
      <trkpt lat="43.9536" lon="7.02415">
        <ele>706.23</ele>
        <time>2015-03-18T11:57:30Z</time>
      </trkpt>
      <trkpt lat="43.95361" lon="7.02415">
        <ele>706.23</ele>
        <time>2015-03-18T11:57:31Z</time>
      </trkpt>
      <trkpt lat="43.95374" lon="7.02419">
        <ele>706.71</ele>
        <time>2015-03-18T11:57:42Z</time>
      </trkpt>
      <trkpt lat="43.95385" lon="7.02425">
        <ele>706.71</ele>
        <time>2015-03-18T11:57:52Z</time>
      </trkpt>
      <trkpt lat="43.95393" lon="7.02434">
        <ele>704.3</ele>
        <time>2015-03-18T11:58:03Z</time>
      </trkpt>
      <trkpt lat="43.95395" lon="7.02443">
        <ele>702.86</ele>
        <time>2015-03-18T11:58:09Z</time>
      </trkpt>
      <trkpt lat="43.95402" lon="7.02454">
        <ele>700.46</ele>
        <time>2015-03-18T11:58:21Z</time>
      </trkpt>
      <trkpt lat="43.95405" lon="7.02467">
        <ele>697.57</ele>
        <time>2015-03-18T11:58:32Z</time>
      </trkpt>
      <trkpt lat="43.95404" lon="7.02469">
        <ele>697.09</ele>
        <time>2015-03-18T11:58:42Z</time>
      </trkpt>
      <trkpt lat="43.95402" lon="7.02476">
        <ele>698.05</ele>
        <time>2015-03-18T11:58:54Z</time>
      </trkpt>
      <trkpt lat="43.95398" lon="7.02474">
        <ele>699.5</ele>
        <time>2015-03-18T11:59:08Z</time>
      </trkpt>
      <trkpt lat="43.95393" lon="7.02473">
        <ele>700.46</ele>
        <time>2015-03-18T11:59:19Z</time>
      </trkpt>
      <trkpt lat="43.95385" lon="7.02475">
        <ele>701.9</ele>
        <time>2015-03-18T11:59:31Z</time>
      </trkpt>
      <trkpt lat="43.95375" lon="7.02483">
        <ele>702.38</ele>
        <time>2015-03-18T11:59:43Z</time>
      </trkpt>
      <trkpt lat="43.95372" lon="7.02494">
        <ele>703.82</ele>
        <time>2015-03-18T11:59:53Z</time>
      </trkpt>
      <trkpt lat="43.95366" lon="7.02507">
        <ele>703.82</ele>
        <time>2015-03-18T12:00:02Z</time>
      </trkpt>
      <trkpt lat="43.95357" lon="7.02514">
        <ele>703.82</ele>
        <time>2015-03-18T12:00:12Z</time>
      </trkpt>
      <trkpt lat="43.95346" lon="7.02524">
        <ele>705.26</ele>
        <time>2015-03-18T12:00:23Z</time>
      </trkpt>
      <trkpt lat="43.95338" lon="7.02532">
        <ele>705.75</ele>
        <time>2015-03-18T12:00:32Z</time>
      </trkpt>
      <trkpt lat="43.95328" lon="7.02543">
        <ele>708.15</ele>
        <time>2015-03-18T12:00:46Z</time>
      </trkpt>
      <trkpt lat="43.95322" lon="7.02548">
        <ele>709.11</ele>
        <time>2015-03-18T12:00:53Z</time>
      </trkpt>
      <trkpt lat="43.95311" lon="7.02555">
        <ele>709.59</ele>
        <time>2015-03-18T12:01:05Z</time>
      </trkpt>
      <trkpt lat="43.95306" lon="7.02562">
        <ele>710.55</ele>
        <time>2015-03-18T12:01:14Z</time>
      </trkpt>
      <trkpt lat="43.95299" lon="7.02566">
        <ele>711.51</ele>
        <time>2015-03-18T12:01:23Z</time>
      </trkpt>
      <trkpt lat="43.95293" lon="7.02572">
        <ele>714.4</ele>
        <time>2015-03-18T12:01:33Z</time>
      </trkpt>
      <trkpt lat="43.95286" lon="7.02577">
        <ele>715.84</ele>
        <time>2015-03-18T12:01:42Z</time>
      </trkpt>
      <trkpt lat="43.95284" lon="7.02585">
        <ele>716.8</ele>
        <time>2015-03-18T12:01:54Z</time>
      </trkpt>
      <trkpt lat="43.95282" lon="7.02585">
        <ele>717.28</ele>
        <time>2015-03-18T12:02:07Z</time>
      </trkpt>
      <trkpt lat="43.95284" lon="7.02586">
        <ele>717.28</ele>
        <time>2015-03-18T12:02:26Z</time>
      </trkpt>
      <trkpt lat="43.95284" lon="7.02586">
        <ele>717.28</ele>
        <time>2015-03-18T12:02:45Z</time>
      </trkpt>
      <trkpt lat="43.95284" lon="7.02585">
        <ele>717.76</ele>
        <time>2015-03-18T12:03:03Z</time>
      </trkpt>
      <trkpt lat="43.95283" lon="7.02597">
        <ele>716.8</ele>
        <time>2015-03-18T12:03:14Z</time>
      </trkpt>
      <trkpt lat="43.95281" lon="7.02607">
        <ele>717.28</ele>
        <time>2015-03-18T12:03:23Z</time>
      </trkpt>
      <trkpt lat="43.95281" lon="7.02608">
        <ele>717.28</ele>
        <time>2015-03-18T12:03:24Z</time>
      </trkpt>
      <trkpt lat="43.95287" lon="7.02625">
        <ele>717.76</ele>
        <time>2015-03-18T12:03:35Z</time>
      </trkpt>
      <trkpt lat="43.95294" lon="7.02639">
        <ele>719.68</ele>
        <time>2015-03-18T12:03:46Z</time>
      </trkpt>
      <trkpt lat="43.95303" lon="7.02646">
        <ele>721.13</ele>
        <time>2015-03-18T12:03:56Z</time>
      </trkpt>
      <trkpt lat="43.95313" lon="7.02655">
        <ele>722.57</ele>
        <time>2015-03-18T12:04:08Z</time>
      </trkpt>
      <trkpt lat="43.95319" lon="7.02661">
        <ele>724.01</ele>
        <time>2015-03-18T12:04:16Z</time>
      </trkpt>
      <trkpt lat="43.95326" lon="7.02665">
        <ele>724.97</ele>
        <time>2015-03-18T12:04:25Z</time>
      </trkpt>
      <trkpt lat="43.95332" lon="7.02672">
        <ele>725.45</ele>
        <time>2015-03-18T12:04:33Z</time>
      </trkpt>
      <trkpt lat="43.95339" lon="7.02681">
        <ele>727.37</ele>
        <time>2015-03-18T12:04:45Z</time>
      </trkpt>
      <trkpt lat="43.95344" lon="7.0269">
        <ele>729.78</ele>
        <time>2015-03-18T12:04:57Z</time>
      </trkpt>
      <trkpt lat="43.95349" lon="7.02693">
        <ele>729.78</ele>
        <time>2015-03-18T12:05:06Z</time>
      </trkpt>
      <trkpt lat="43.95348" lon="7.02698">
        <ele>731.22</ele>
        <time>2015-03-18T12:05:15Z</time>
      </trkpt>
      <trkpt lat="43.95341" lon="7.02696">
        <ele>732.66</ele>
        <time>2015-03-18T12:05:24Z</time>
      </trkpt>
      <trkpt lat="43.95334" lon="7.02697">
        <ele>733.62</ele>
        <time>2015-03-18T12:05:35Z</time>
      </trkpt>
      <trkpt lat="43.95328" lon="7.02709">
        <ele>735.07</ele>
        <time>2015-03-18T12:05:48Z</time>
      </trkpt>
      <trkpt lat="43.95325" lon="7.02719">
        <ele>737.95</ele>
        <time>2015-03-18T12:06:02Z</time>
      </trkpt>
      <trkpt lat="43.95324" lon="7.02725">
        <ele>739.87</ele>
        <time>2015-03-18T12:06:10Z</time>
      </trkpt>
      <trkpt lat="43.95327" lon="7.02728">
        <ele>741.79</ele>
        <time>2015-03-18T12:06:22Z</time>
      </trkpt>
      <trkpt lat="43.95326" lon="7.02734">
        <ele>744.2</ele>
        <time>2015-03-18T12:06:34Z</time>
      </trkpt>
      <trkpt lat="43.95328" lon="7.02734">
        <ele>745.64</ele>
        <time>2015-03-18T12:06:45Z</time>
      </trkpt>
      <trkpt lat="43.95332" lon="7.02733">
        <ele>747.08</ele>
        <time>2015-03-18T12:06:54Z</time>
      </trkpt>
      <trkpt lat="43.95336" lon="7.02733">
        <ele>749.49</ele>
        <time>2015-03-18T12:07:06Z</time>
      </trkpt>
      <trkpt lat="43.9534" lon="7.02732">
        <ele>750.93</ele>
        <time>2015-03-18T12:07:16Z</time>
      </trkpt>
      <trkpt lat="43.95344" lon="7.02734">
        <ele>752.37</ele>
        <time>2015-03-18T12:07:25Z</time>
      </trkpt>
      <trkpt lat="43.95341" lon="7.02739">
        <ele>754.29</ele>
        <time>2015-03-18T12:07:36Z</time>
      </trkpt>
      <trkpt lat="43.95339" lon="7.02747">
        <ele>754.29</ele>
        <time>2015-03-18T12:07:45Z</time>
      </trkpt>
      <trkpt lat="43.95335" lon="7.02761">
        <ele>753.81</ele>
        <time>2015-03-18T12:07:56Z</time>
      </trkpt>
      <trkpt lat="43.95337" lon="7.02771">
        <ele>753.81</ele>
        <time>2015-03-18T12:08:05Z</time>
      </trkpt>
      <trkpt lat="43.95338" lon="7.02785">
        <ele>755.25</ele>
        <time>2015-03-18T12:08:14Z</time>
      </trkpt>
      <trkpt lat="43.95338" lon="7.02789">
        <ele>756.69</ele>
        <time>2015-03-18T12:08:24Z</time>
      </trkpt>
      <trkpt lat="43.95335" lon="7.028">
        <ele>757.18</ele>
        <time>2015-03-18T12:08:33Z</time>
      </trkpt>
      <trkpt lat="43.95333" lon="7.02807">
        <ele>756.69</ele>
        <time>2015-03-18T12:08:39Z</time>
      </trkpt>
      <trkpt lat="43.95325" lon="7.02811">
        <ele>757.18</ele>
        <time>2015-03-18T12:08:51Z</time>
      </trkpt>
      <trkpt lat="43.9532" lon="7.02816">
        <ele>758.14</ele>
        <time>2015-03-18T12:09:00Z</time>
      </trkpt>
      <trkpt lat="43.95311" lon="7.0282">
        <ele>760.06</ele>
        <time>2015-03-18T12:09:11Z</time>
      </trkpt>
      <trkpt lat="43.95309" lon="7.02826">
        <ele>762.46</ele>
        <time>2015-03-18T12:09:23Z</time>
      </trkpt>
      <trkpt lat="43.95313" lon="7.02827">
        <ele>764.39</ele>
        <time>2015-03-18T12:09:34Z</time>
      </trkpt>
      <trkpt lat="43.95308" lon="7.02836">
        <ele>766.79</ele>
        <time>2015-03-18T12:09:45Z</time>
      </trkpt>
      <trkpt lat="43.95302" lon="7.0284">
        <ele>768.23</ele>
        <time>2015-03-18T12:09:55Z</time>
      </trkpt>
      <trkpt lat="43.95299" lon="7.02845">
        <ele>769.19</ele>
        <time>2015-03-18T12:10:03Z</time>
      </trkpt>
      <trkpt lat="43.95292" lon="7.02851">
        <ele>771.11</ele>
        <time>2015-03-18T12:10:15Z</time>
      </trkpt>
      <trkpt lat="43.95286" lon="7.02855">
        <ele>773.04</ele>
        <time>2015-03-18T12:10:27Z</time>
      </trkpt>
      <trkpt lat="43.95283" lon="7.02859">
        <ele>774.96</ele>
        <time>2015-03-18T12:10:38Z</time>
      </trkpt>
      <trkpt lat="43.95281" lon="7.02864">
        <ele>776.88</ele>
        <time>2015-03-18T12:10:48Z</time>
      </trkpt>
      <trkpt lat="43.95276" lon="7.0287">
        <ele>778.81</ele>
        <time>2015-03-18T12:10:59Z</time>
      </trkpt>
      <trkpt lat="43.95273" lon="7.02875">
        <ele>780.73</ele>
        <time>2015-03-18T12:11:10Z</time>
      </trkpt>
      <trkpt lat="43.95266" lon="7.02877">
        <ele>782.17</ele>
        <time>2015-03-18T12:11:21Z</time>
      </trkpt>
      <trkpt lat="43.95264" lon="7.02879">
        <ele>784.09</ele>
        <time>2015-03-18T12:11:31Z</time>
      </trkpt>
      <trkpt lat="43.95258" lon="7.02884">
        <ele>786.02</ele>
        <time>2015-03-18T12:11:44Z</time>
      </trkpt>
      <trkpt lat="43.95258" lon="7.02888">
        <ele>787.94</ele>
        <time>2015-03-18T12:11:56Z</time>
      </trkpt>
      <trkpt lat="43.9526" lon="7.02896">
        <ele>789.86</ele>
        <time>2015-03-18T12:12:06Z</time>
      </trkpt>
      <trkpt lat="43.95264" lon="7.029">
        <ele>791.78</ele>
        <time>2015-03-18T12:12:18Z</time>
      </trkpt>
      <trkpt lat="43.95259" lon="7.02901">
        <ele>791.78</ele>
        <time>2015-03-18T12:12:27Z</time>
      </trkpt>
      <trkpt lat="43.95259" lon="7.02903">
        <ele>791.78</ele>
        <time>2015-03-18T12:12:40Z</time>
      </trkpt>
      <trkpt lat="43.95259" lon="7.02904">
        <ele>791.78</ele>
        <time>2015-03-18T12:12:57Z</time>
      </trkpt>
      <trkpt lat="43.95259" lon="7.02904">
        <ele>791.78</ele>
        <time>2015-03-18T12:13:18Z</time>
      </trkpt>
      <trkpt lat="43.95259" lon="7.02904">
        <ele>791.78</ele>
        <time>2015-03-18T12:13:40Z</time>
      </trkpt>
      <trkpt lat="43.95259" lon="7.02905">
        <ele>792.26</ele>
        <time>2015-03-18T12:13:56Z</time>
      </trkpt>
      <trkpt lat="43.95259" lon="7.02905">
        <ele>792.26</ele>
        <time>2015-03-18T12:14:13Z</time>
      </trkpt>
      <trkpt lat="43.9526" lon="7.02905">
        <ele>792.74</ele>
        <time>2015-03-18T12:14:29Z</time>
      </trkpt>
      <trkpt lat="43.95264" lon="7.02906">
        <ele>793.71</ele>
        <time>2015-03-18T12:14:37Z</time>
      </trkpt>
      <trkpt lat="43.95269" lon="7.02909">
        <ele>795.63</ele>
        <time>2015-03-18T12:14:49Z</time>
      </trkpt>
      <trkpt lat="43.95271" lon="7.0291">
        <ele>797.07</ele>
        <time>2015-03-18T12:14:59Z</time>
      </trkpt>
      <trkpt lat="43.95272" lon="7.0291">
        <ele>798.03</ele>
        <time>2015-03-18T12:15:16Z</time>
      </trkpt>
      <trkpt lat="43.95277" lon="7.02913">
        <ele>799.95</ele>
        <time>2015-03-18T12:15:27Z</time>
      </trkpt>
      <trkpt lat="43.95278" lon="7.02914">
        <ele>803.32</ele>
        <time>2015-03-18T12:15:38Z</time>
      </trkpt>
      <trkpt lat="43.95282" lon="7.02916">
        <ele>805.24</ele>
        <time>2015-03-18T12:15:52Z</time>
      </trkpt>
      <trkpt lat="43.95285" lon="7.0292">
        <ele>806.68</ele>
        <time>2015-03-18T12:16:02Z</time>
      </trkpt>
      <trkpt lat="43.95287" lon="7.02922">
        <ele>808.61</ele>
        <time>2015-03-18T12:16:14Z</time>
      </trkpt>
      <trkpt lat="43.9529" lon="7.02922">
        <ele>810.53</ele>
        <time>2015-03-18T12:16:24Z</time>
      </trkpt>
      <trkpt lat="43.95293" lon="7.02922">
        <ele>812.45</ele>
        <time>2015-03-18T12:16:34Z</time>
      </trkpt>
      <trkpt lat="43.95296" lon="7.02922">
        <ele>814.37</ele>
        <time>2015-03-18T12:16:45Z</time>
      </trkpt>
      <trkpt lat="43.95299" lon="7.02925">
        <ele>815.82</ele>
        <time>2015-03-18T12:16:55Z</time>
      </trkpt>
      <trkpt lat="43.95306" lon="7.0293">
        <ele>818.22</ele>
        <time>2015-03-18T12:17:07Z</time>
      </trkpt>
      <trkpt lat="43.95319" lon="7.02932">
        <ele>819.66</ele>
        <time>2015-03-18T12:17:17Z</time>
      </trkpt>
      <trkpt lat="43.95329" lon="7.02933">
        <ele>820.62</ele>
        <time>2015-03-18T12:17:26Z</time>
      </trkpt>
      <trkpt lat="43.95334" lon="7.0293">
        <ele>822.06</ele>
        <time>2015-03-18T12:17:36Z</time>
      </trkpt>
      <trkpt lat="43.95343" lon="7.02926">
        <ele>823.99</ele>
        <time>2015-03-18T12:17:48Z</time>
      </trkpt>
      <trkpt lat="43.95355" lon="7.02928">
        <ele>826.39</ele>
        <time>2015-03-18T12:18:01Z</time>
      </trkpt>
      <trkpt lat="43.95358" lon="7.0293">
        <ele>827.83</ele>
        <time>2015-03-18T12:18:10Z</time>
      </trkpt>
      <trkpt lat="43.95363" lon="7.02932">
        <ele>830.24</ele>
        <time>2015-03-18T12:18:22Z</time>
      </trkpt>
      <trkpt lat="43.95367" lon="7.02933">
        <ele>832.16</ele>
        <time>2015-03-18T12:18:33Z</time>
      </trkpt>
      <trkpt lat="43.95373" lon="7.02933">
        <ele>834.08</ele>
        <time>2015-03-18T12:18:45Z</time>
      </trkpt>
      <trkpt lat="43.95376" lon="7.0293">
        <ele>836</ele>
        <time>2015-03-18T12:18:55Z</time>
      </trkpt>
      <trkpt lat="43.95382" lon="7.02932">
        <ele>837.93</ele>
        <time>2015-03-18T12:19:07Z</time>
      </trkpt>
      <trkpt lat="43.9539" lon="7.0293">
        <ele>840.33</ele>
        <time>2015-03-18T12:19:17Z</time>
      </trkpt>
      <trkpt lat="43.95394" lon="7.02929">
        <ele>841.77</ele>
        <time>2015-03-18T12:19:26Z</time>
      </trkpt>
      <trkpt lat="43.95397" lon="7.02931">
        <ele>844.18</ele>
        <time>2015-03-18T12:19:38Z</time>
      </trkpt>
      <trkpt lat="43.95402" lon="7.02933">
        <ele>845.62</ele>
        <time>2015-03-18T12:19:48Z</time>
      </trkpt>
      <trkpt lat="43.95404" lon="7.02928">
        <ele>847.06</ele>
        <time>2015-03-18T12:19:57Z</time>
      </trkpt>
      <trkpt lat="43.95407" lon="7.02923">
        <ele>848.98</ele>
        <time>2015-03-18T12:20:08Z</time>
      </trkpt>
      <trkpt lat="43.95415" lon="7.0292">
        <ele>850.9</ele>
        <time>2015-03-18T12:20:19Z</time>
      </trkpt>
      <trkpt lat="43.95419" lon="7.02918">
        <ele>853.31</ele>
        <time>2015-03-18T12:20:30Z</time>
      </trkpt>
      <trkpt lat="43.95425" lon="7.02915">
        <ele>854.75</ele>
        <time>2015-03-18T12:20:42Z</time>
      </trkpt>
      <trkpt lat="43.95429" lon="7.02916">
        <ele>854.75</ele>
        <time>2015-03-18T12:20:57Z</time>
      </trkpt>
      <trkpt lat="43.95428" lon="7.02916">
        <ele>855.23</ele>
        <time>2015-03-18T12:21:20Z</time>
      </trkpt>
      <trkpt lat="43.95428" lon="7.02916">
        <ele>855.23</ele>
        <time>2015-03-18T12:21:42Z</time>
      </trkpt>
      <trkpt lat="43.95429" lon="7.02915">
        <ele>855.23</ele>
        <time>2015-03-18T12:21:57Z</time>
      </trkpt>
      <trkpt lat="43.95435" lon="7.02897">
        <ele>855.71</ele>
        <time>2015-03-18T12:22:10Z</time>
      </trkpt>
      <trkpt lat="43.95439" lon="7.02889">
        <ele>856.19</ele>
        <time>2015-03-18T12:22:17Z</time>
      </trkpt>
      <trkpt lat="43.95449" lon="7.02875">
        <ele>855.71</ele>
        <time>2015-03-18T12:22:28Z</time>
      </trkpt>
      <trkpt lat="43.9546" lon="7.02865">
        <ele>855.71</ele>
        <time>2015-03-18T12:22:40Z</time>
      </trkpt>
      <trkpt lat="43.95462" lon="7.02859">
        <ele>855.71</ele>
        <time>2015-03-18T12:22:45Z</time>
      </trkpt>
      <trkpt lat="43.95465" lon="7.02844">
        <ele>855.71</ele>
        <time>2015-03-18T12:22:55Z</time>
      </trkpt>
      <trkpt lat="43.95469" lon="7.02834">
        <ele>855.71</ele>
        <time>2015-03-18T12:23:04Z</time>
      </trkpt>
      <trkpt lat="43.95476" lon="7.02821">
        <ele>855.23</ele>
        <time>2015-03-18T12:23:15Z</time>
      </trkpt>
      <trkpt lat="43.95482" lon="7.02811">
        <ele>855.71</ele>
        <time>2015-03-18T12:23:24Z</time>
      </trkpt>
      <trkpt lat="43.95486" lon="7.02799">
        <ele>856.67</ele>
        <time>2015-03-18T12:23:35Z</time>
      </trkpt>
      <trkpt lat="43.9549" lon="7.02788">
        <ele>857.63</ele>
        <time>2015-03-18T12:23:46Z</time>
      </trkpt>
      <trkpt lat="43.95494" lon="7.02768">
        <ele>857.15</ele>
        <time>2015-03-18T12:23:57Z</time>
      </trkpt>
      <trkpt lat="43.95496" lon="7.02754">
        <ele>857.63</ele>
        <time>2015-03-18T12:24:07Z</time>
      </trkpt>
      <trkpt lat="43.95497" lon="7.02743">
        <ele>859.08</ele>
        <time>2015-03-18T12:24:16Z</time>
      </trkpt>
      <trkpt lat="43.95499" lon="7.02731">
        <ele>860.52</ele>
        <time>2015-03-18T12:24:25Z</time>
      </trkpt>
      <trkpt lat="43.95503" lon="7.02716">
        <ele>862.92</ele>
        <time>2015-03-18T12:24:38Z</time>
      </trkpt>
      <trkpt lat="43.95502" lon="7.02704">
        <ele>864.36</ele>
        <time>2015-03-18T12:24:48Z</time>
      </trkpt>
      <trkpt lat="43.95504" lon="7.02699">
        <ele>865.8</ele>
        <time>2015-03-18T12:24:57Z</time>
      </trkpt>
      <trkpt lat="43.95514" lon="7.02685">
        <ele>866.29</ele>
        <time>2015-03-18T12:25:09Z</time>
      </trkpt>
      <trkpt lat="43.9553" lon="7.02683">
        <ele>865.32</ele>
        <time>2015-03-18T12:25:21Z</time>
      </trkpt>
      <trkpt lat="43.95542" lon="7.02683">
        <ele>865.32</ele>
        <time>2015-03-18T12:25:34Z</time>
      </trkpt>
      <trkpt lat="43.95545" lon="7.02682">
        <ele>865.32</ele>
        <time>2015-03-18T12:25:44Z</time>
      </trkpt>
      <trkpt lat="43.95559" lon="7.02675">
        <ele>865.32</ele>
        <time>2015-03-18T12:25:55Z</time>
      </trkpt>
      <trkpt lat="43.95561" lon="7.02674">
        <ele>865.32</ele>
        <time>2015-03-18T12:25:56Z</time>
      </trkpt>
      <trkpt lat="43.95562" lon="7.02671">
        <ele>865.32</ele>
        <time>2015-03-18T12:25:58Z</time>
      </trkpt>
      <trkpt lat="43.95566" lon="7.02666">
        <ele>865.32</ele>
        <time>2015-03-18T12:26:02Z</time>
      </trkpt>
      <trkpt lat="43.95574" lon="7.02652">
        <ele>866.29</ele>
        <time>2015-03-18T12:26:12Z</time>
      </trkpt>
      <trkpt lat="43.95575" lon="7.02647">
        <ele>866.77</ele>
        <time>2015-03-18T12:26:15Z</time>
      </trkpt>
      <trkpt lat="43.95582" lon="7.02635">
        <ele>867.25</ele>
        <time>2015-03-18T12:26:25Z</time>
      </trkpt>
      <trkpt lat="43.95584" lon="7.02634">
        <ele>867.25</ele>
        <time>2015-03-18T12:26:26Z</time>
      </trkpt>
      <trkpt lat="43.9559" lon="7.0263">
        <ele>866.77</ele>
        <time>2015-03-18T12:26:31Z</time>
      </trkpt>
      <trkpt lat="43.95594" lon="7.02622">
        <ele>866.77</ele>
        <time>2015-03-18T12:26:39Z</time>
      </trkpt>
      <trkpt lat="43.956" lon="7.02608">
        <ele>867.73</ele>
        <time>2015-03-18T12:26:49Z</time>
      </trkpt>
      <trkpt lat="43.95605" lon="7.02602">
        <ele>869.17</ele>
        <time>2015-03-18T12:26:56Z</time>
      </trkpt>
      <trkpt lat="43.95614" lon="7.02594">
        <ele>870.61</ele>
        <time>2015-03-18T12:27:07Z</time>
      </trkpt>
      <trkpt lat="43.95614" lon="7.02594">
        <ele>871.09</ele>
        <time>2015-03-18T12:27:09Z</time>
      </trkpt>
      <trkpt lat="43.95625" lon="7.02586">
        <ele>872.05</ele>
        <time>2015-03-18T12:27:21Z</time>
      </trkpt>
      <trkpt lat="43.95636" lon="7.02574">
        <ele>872.05</ele>
        <time>2015-03-18T12:27:33Z</time>
      </trkpt>
      <trkpt lat="43.95634" lon="7.02559">
        <ele>873.01</ele>
        <time>2015-03-18T12:27:44Z</time>
      </trkpt>
      <trkpt lat="43.95631" lon="7.02541">
        <ele>874.46</ele>
        <time>2015-03-18T12:27:56Z</time>
      </trkpt>
      <trkpt lat="43.95634" lon="7.02529">
        <ele>876.38</ele>
        <time>2015-03-18T12:28:07Z</time>
      </trkpt>
      <trkpt lat="43.95637" lon="7.02521">
        <ele>878.78</ele>
        <time>2015-03-18T12:28:20Z</time>
      </trkpt>
      <trkpt lat="43.9564" lon="7.02512">
        <ele>880.71</ele>
        <time>2015-03-18T12:28:31Z</time>
      </trkpt>
      <trkpt lat="43.95644" lon="7.02499">
        <ele>882.63</ele>
        <time>2015-03-18T12:28:44Z</time>
      </trkpt>
      <trkpt lat="43.95642" lon="7.02493">
        <ele>884.55</ele>
        <time>2015-03-18T12:28:53Z</time>
      </trkpt>
      <trkpt lat="43.95638" lon="7.02483">
        <ele>886.47</ele>
        <time>2015-03-18T12:29:03Z</time>
      </trkpt>
      <trkpt lat="43.95639" lon="7.02473">
        <ele>888.4</ele>
        <time>2015-03-18T12:29:14Z</time>
      </trkpt>
      <trkpt lat="43.95643" lon="7.02467">
        <ele>890.32</ele>
        <time>2015-03-18T12:29:25Z</time>
      </trkpt>
      <trkpt lat="43.95646" lon="7.02459">
        <ele>891.76</ele>
        <time>2015-03-18T12:29:37Z</time>
      </trkpt>
      <trkpt lat="43.95655" lon="7.02455">
        <ele>893.2</ele>
        <time>2015-03-18T12:29:47Z</time>
      </trkpt>
      <trkpt lat="43.95664" lon="7.02449">
        <ele>894.64</ele>
        <time>2015-03-18T12:29:58Z</time>
      </trkpt>
      <trkpt lat="43.95669" lon="7.02442">
        <ele>896.09</ele>
        <time>2015-03-18T12:30:09Z</time>
      </trkpt>
      <trkpt lat="43.95673" lon="7.02437">
        <ele>897.53</ele>
        <time>2015-03-18T12:30:19Z</time>
      </trkpt>
      <trkpt lat="43.95677" lon="7.0243">
        <ele>899.45</ele>
        <time>2015-03-18T12:30:32Z</time>
      </trkpt>
      <trkpt lat="43.95685" lon="7.02425">
        <ele>901.37</ele>
        <time>2015-03-18T12:30:45Z</time>
      </trkpt>
      <trkpt lat="43.95694" lon="7.02422">
        <ele>902.33</ele>
        <time>2015-03-18T12:30:56Z</time>
      </trkpt>
      <trkpt lat="43.95703" lon="7.02412">
        <ele>903.3</ele>
        <time>2015-03-18T12:31:07Z</time>
      </trkpt>
      <trkpt lat="43.95708" lon="7.02401">
        <ele>904.26</ele>
        <time>2015-03-18T12:31:17Z</time>
      </trkpt>
      <trkpt lat="43.95711" lon="7.02395">
        <ele>904.74</ele>
        <time>2015-03-18T12:31:26Z</time>
      </trkpt>
      <trkpt lat="43.95711" lon="7.02382">
        <ele>906.66</ele>
        <time>2015-03-18T12:31:37Z</time>
      </trkpt>
      <trkpt lat="43.95713" lon="7.0237">
        <ele>907.14</ele>
        <time>2015-03-18T12:31:47Z</time>
      </trkpt>
      <trkpt lat="43.95718" lon="7.02359">
        <ele>908.58</ele>
        <time>2015-03-18T12:31:58Z</time>
      </trkpt>
      <trkpt lat="43.95722" lon="7.02353">
        <ele>910.51</ele>
        <time>2015-03-18T12:32:09Z</time>
      </trkpt>
      <trkpt lat="43.95721" lon="7.02342">
        <ele>911.47</ele>
        <time>2015-03-18T12:32:19Z</time>
      </trkpt>
      <trkpt lat="43.95723" lon="7.02332">
        <ele>912.91</ele>
        <time>2015-03-18T12:32:29Z</time>
      </trkpt>
      <trkpt lat="43.95728" lon="7.0232">
        <ele>914.83</ele>
        <time>2015-03-18T12:32:44Z</time>
      </trkpt>
      <trkpt lat="43.9573" lon="7.02315">
        <ele>916.75</ele>
        <time>2015-03-18T12:32:56Z</time>
      </trkpt>
      <trkpt lat="43.95734" lon="7.02307">
        <ele>918.2</ele>
        <time>2015-03-18T12:33:07Z</time>
      </trkpt>
      <trkpt lat="43.95733" lon="7.02298">
        <ele>919.64</ele>
        <time>2015-03-18T12:33:18Z</time>
      </trkpt>
      <trkpt lat="43.95728" lon="7.02287">
        <ele>921.08</ele>
        <time>2015-03-18T12:33:30Z</time>
      </trkpt>
      <trkpt lat="43.95724" lon="7.02273">
        <ele>922.52</ele>
        <time>2015-03-18T12:33:42Z</time>
      </trkpt>
      <trkpt lat="43.95722" lon="7.02264">
        <ele>923.96</ele>
        <time>2015-03-18T12:33:53Z</time>
      </trkpt>
      <trkpt lat="43.9572" lon="7.02259">
        <ele>924.93</ele>
        <time>2015-03-18T12:34:04Z</time>
      </trkpt>
      <trkpt lat="43.95718" lon="7.02252">
        <ele>926.85</ele>
        <time>2015-03-18T12:34:15Z</time>
      </trkpt>
      <trkpt lat="43.95719" lon="7.02247">
        <ele>928.77</ele>
        <time>2015-03-18T12:34:26Z</time>
      </trkpt>
      <trkpt lat="43.9572" lon="7.02243">
        <ele>931.17</ele>
        <time>2015-03-18T12:34:38Z</time>
      </trkpt>
      <trkpt lat="43.95716" lon="7.02234">
        <ele>932.14</ele>
        <time>2015-03-18T12:34:48Z</time>
      </trkpt>
      <trkpt lat="43.95715" lon="7.02223">
        <ele>934.06</ele>
        <time>2015-03-18T12:34:59Z</time>
      </trkpt>
      <trkpt lat="43.95715" lon="7.0222">
        <ele>936.46</ele>
        <time>2015-03-18T12:35:11Z</time>
      </trkpt>
      <trkpt lat="43.95713" lon="7.02211">
        <ele>938.86</ele>
        <time>2015-03-18T12:35:24Z</time>
      </trkpt>
      <trkpt lat="43.95711" lon="7.02199">
        <ele>940.79</ele>
        <time>2015-03-18T12:35:35Z</time>
      </trkpt>
      <trkpt lat="43.95709" lon="7.02191">
        <ele>941.75</ele>
        <time>2015-03-18T12:35:45Z</time>
      </trkpt>
      <trkpt lat="43.95704" lon="7.02178">
        <ele>943.19</ele>
        <time>2015-03-18T12:35:56Z</time>
      </trkpt>
      <trkpt lat="43.95703" lon="7.02173">
        <ele>944.63</ele>
        <time>2015-03-18T12:36:06Z</time>
      </trkpt>
      <trkpt lat="43.95695" lon="7.02164">
        <ele>946.07</ele>
        <time>2015-03-18T12:36:17Z</time>
      </trkpt>
      <trkpt lat="43.95692" lon="7.02157">
        <ele>948</ele>
        <time>2015-03-18T12:36:28Z</time>
      </trkpt>
      <trkpt lat="43.95689" lon="7.0215">
        <ele>950.4</ele>
        <time>2015-03-18T12:36:38Z</time>
      </trkpt>
      <trkpt lat="43.95687" lon="7.02141">
        <ele>951.84</ele>
        <time>2015-03-18T12:36:48Z</time>
      </trkpt>
      <trkpt lat="43.95688" lon="7.02133">
        <ele>953.77</ele>
        <time>2015-03-18T12:36:59Z</time>
      </trkpt>
      <trkpt lat="43.95688" lon="7.02129">
        <ele>954.25</ele>
        <time>2015-03-18T12:37:03Z</time>
      </trkpt>
      <trkpt lat="43.95688" lon="7.02118">
        <ele>956.17</ele>
        <time>2015-03-18T12:37:13Z</time>
      </trkpt>
      <trkpt lat="43.95689" lon="7.02113">
        <ele>958.57</ele>
        <time>2015-03-18T12:37:23Z</time>
      </trkpt>
      <trkpt lat="43.95689" lon="7.02103">
        <ele>960.01</ele>
        <time>2015-03-18T12:37:33Z</time>
      </trkpt>
      <trkpt lat="43.95692" lon="7.02096">
        <ele>960.98</ele>
        <time>2015-03-18T12:37:45Z</time>
      </trkpt>
      <trkpt lat="43.95693" lon="7.02089">
        <ele>961.94</ele>
        <time>2015-03-18T12:37:53Z</time>
      </trkpt>
      <trkpt lat="43.95694" lon="7.02087">
        <ele>962.42</ele>
        <time>2015-03-18T12:38:15Z</time>
      </trkpt>
      <trkpt lat="43.95693" lon="7.02086">
        <ele>962.9</ele>
        <time>2015-03-18T12:38:28Z</time>
      </trkpt>
      <trkpt lat="43.95694" lon="7.02085">
        <ele>962.42</ele>
        <time>2015-03-18T12:38:47Z</time>
      </trkpt>
      <trkpt lat="43.95694" lon="7.02085">
        <ele>962.42</ele>
        <time>2015-03-18T12:39:02Z</time>
      </trkpt>
      <trkpt lat="43.95693" lon="7.02085">
        <ele>962.42</ele>
        <time>2015-03-18T12:39:19Z</time>
      </trkpt>
      <trkpt lat="43.95693" lon="7.02086">
        <ele>961.94</ele>
        <time>2015-03-18T12:39:30Z</time>
      </trkpt>
      <trkpt lat="43.95692" lon="7.02092">
        <ele>961.94</ele>
        <time>2015-03-18T12:39:42Z</time>
      </trkpt>
      <trkpt lat="43.95692" lon="7.02093">
        <ele>961.94</ele>
        <time>2015-03-18T12:40:08Z</time>
      </trkpt>
      <trkpt lat="43.95691" lon="7.02094">
        <ele>961.46</ele>
        <time>2015-03-18T12:40:12Z</time>
      </trkpt>
      <trkpt lat="43.95681" lon="7.02092">
        <ele>959.05</ele>
        <time>2015-03-18T12:40:20Z</time>
      </trkpt>
      <trkpt lat="43.95673" lon="7.02094">
        <ele>958.09</ele>
        <time>2015-03-18T12:40:27Z</time>
      </trkpt>
      <trkpt lat="43.95659" lon="7.02105">
        <ele>954.73</ele>
        <time>2015-03-18T12:40:37Z</time>
      </trkpt>
      <trkpt lat="43.95655" lon="7.02106">
        <ele>953.77</ele>
        <time>2015-03-18T12:40:40Z</time>
      </trkpt>
      <trkpt lat="43.95649" lon="7.02108">
        <ele>952.32</ele>
        <time>2015-03-18T12:40:45Z</time>
      </trkpt>
      <trkpt lat="43.95641" lon="7.02108">
        <ele>951.36</ele>
        <time>2015-03-18T12:40:52Z</time>
      </trkpt>
      <trkpt lat="43.95637" lon="7.0211">
        <ele>951.84</ele>
        <time>2015-03-18T12:40:56Z</time>
      </trkpt>
      <trkpt lat="43.95629" lon="7.02112">
        <ele>950.4</ele>
        <time>2015-03-18T12:41:02Z</time>
      </trkpt>
      <trkpt lat="43.95621" lon="7.02121">
        <ele>949.92</ele>
        <time>2015-03-18T12:41:13Z</time>
      </trkpt>
      <trkpt lat="43.95621" lon="7.02122">
        <ele>949.92</ele>
        <time>2015-03-18T12:41:19Z</time>
      </trkpt>
      <trkpt lat="43.95619" lon="7.02122">
        <ele>948.96</ele>
        <time>2015-03-18T12:41:21Z</time>
      </trkpt>
      <trkpt lat="43.95612" lon="7.02121">
        <ele>948.48</ele>
        <time>2015-03-18T12:41:32Z</time>
      </trkpt>
      <trkpt lat="43.95616" lon="7.02125">
        <ele>948.96</ele>
        <time>2015-03-18T12:41:44Z</time>
      </trkpt>
      <trkpt lat="43.95618" lon="7.02123">
        <ele>948.48</ele>
        <time>2015-03-18T12:42:02Z</time>
      </trkpt>
      <trkpt lat="43.95619" lon="7.02125">
        <ele>948.48</ele>
        <time>2015-03-18T12:42:17Z</time>
      </trkpt>
      <trkpt lat="43.95628" lon="7.0213">
        <ele>950.4</ele>
        <time>2015-03-18T12:42:30Z</time>
      </trkpt>
      <trkpt lat="43.9563" lon="7.02131">
        <ele>950.4</ele>
        <time>2015-03-18T12:42:32Z</time>
      </trkpt>
      <trkpt lat="43.95632" lon="7.02133">
        <ele>950.4</ele>
        <time>2015-03-18T12:42:34Z</time>
      </trkpt>
      <trkpt lat="43.95645" lon="7.02131">
        <ele>950.4</ele>
        <time>2015-03-18T12:42:44Z</time>
      </trkpt>
      <trkpt lat="43.95653" lon="7.02122">
        <ele>951.36</ele>
        <time>2015-03-18T12:42:55Z</time>
      </trkpt>
      <trkpt lat="43.9566" lon="7.02114">
        <ele>953.28</ele>
        <time>2015-03-18T12:43:06Z</time>
      </trkpt>
      <trkpt lat="43.95668" lon="7.02106">
        <ele>955.21</ele>
        <time>2015-03-18T12:43:16Z</time>
      </trkpt>
      <trkpt lat="43.95674" lon="7.02101">
        <ele>957.13</ele>
        <time>2015-03-18T12:43:26Z</time>
      </trkpt>
      <trkpt lat="43.95682" lon="7.02097">
        <ele>959.05</ele>
        <time>2015-03-18T12:43:38Z</time>
      </trkpt>
      <trkpt lat="43.95691" lon="7.02094">
        <ele>960.49</ele>
        <time>2015-03-18T12:43:48Z</time>
      </trkpt>
      <trkpt lat="43.95699" lon="7.02093">
        <ele>962.9</ele>
        <time>2015-03-18T12:43:59Z</time>
      </trkpt>
      <trkpt lat="43.95707" lon="7.02089">
        <ele>964.82</ele>
        <time>2015-03-18T12:44:10Z</time>
      </trkpt>
      <trkpt lat="43.95717" lon="7.02088">
        <ele>967.7</ele>
        <time>2015-03-18T12:44:22Z</time>
      </trkpt>
      <trkpt lat="43.95725" lon="7.02082">
        <ele>969.15</ele>
        <time>2015-03-18T12:44:34Z</time>
      </trkpt>
      <trkpt lat="43.9573" lon="7.02079">
        <ele>970.59</ele>
        <time>2015-03-18T12:44:44Z</time>
      </trkpt>
      <trkpt lat="43.95737" lon="7.02072">
        <ele>972.99</ele>
        <time>2015-03-18T12:44:56Z</time>
      </trkpt>
      <trkpt lat="43.95747" lon="7.02069">
        <ele>973.95</ele>
        <time>2015-03-18T12:45:07Z</time>
      </trkpt>
      <trkpt lat="43.95757" lon="7.02065">
        <ele>974.91</ele>
        <time>2015-03-18T12:45:17Z</time>
      </trkpt>
      <trkpt lat="43.95766" lon="7.02063">
        <ele>975.88</ele>
        <time>2015-03-18T12:45:28Z</time>
      </trkpt>
      <trkpt lat="43.9577" lon="7.02064">
        <ele>976.36</ele>
        <time>2015-03-18T12:45:34Z</time>
      </trkpt>
      <trkpt lat="43.95778" lon="7.02069">
        <ele>977.8</ele>
        <time>2015-03-18T12:45:45Z</time>
      </trkpt>
      <trkpt lat="43.95781" lon="7.02077">
        <ele>979.24</ele>
        <time>2015-03-18T12:45:54Z</time>
      </trkpt>
      <trkpt lat="43.95782" lon="7.02083">
        <ele>981.16</ele>
        <time>2015-03-18T12:46:03Z</time>
      </trkpt>
      <trkpt lat="43.95779" lon="7.0209">
        <ele>983.09</ele>
        <time>2015-03-18T12:46:12Z</time>
      </trkpt>
      <trkpt lat="43.95774" lon="7.02098">
        <ele>985.01</ele>
        <time>2015-03-18T12:46:22Z</time>
      </trkpt>
      <trkpt lat="43.95773" lon="7.02107">
        <ele>986.93</ele>
        <time>2015-03-18T12:46:32Z</time>
      </trkpt>
      <trkpt lat="43.95771" lon="7.02112">
        <ele>988.85</ele>
        <time>2015-03-18T12:46:42Z</time>
      </trkpt>
      <trkpt lat="43.95771" lon="7.02116">
        <ele>989.81</ele>
        <time>2015-03-18T12:46:51Z</time>
      </trkpt>
      <trkpt lat="43.95773" lon="7.02126">
        <ele>990.3</ele>
        <time>2015-03-18T12:47:01Z</time>
      </trkpt>
      <trkpt lat="43.95771" lon="7.02135">
        <ele>990.3</ele>
        <time>2015-03-18T12:47:14Z</time>
      </trkpt>
      <trkpt lat="43.95769" lon="7.02143">
        <ele>990.3</ele>
        <time>2015-03-18T12:47:24Z</time>
      </trkpt>
      <trkpt lat="43.9577" lon="7.02143">
        <ele>990.3</ele>
        <time>2015-03-18T12:47:41Z</time>
      </trkpt>
      <trkpt lat="43.95772" lon="7.02139">
        <ele>990.78</ele>
        <time>2015-03-18T12:47:55Z</time>
      </trkpt>
      <trkpt lat="43.95777" lon="7.02137">
        <ele>991.74</ele>
        <time>2015-03-18T12:48:06Z</time>
      </trkpt>
      <trkpt lat="43.95779" lon="7.02135">
        <ele>992.7</ele>
        <time>2015-03-18T12:48:16Z</time>
      </trkpt>
      <trkpt lat="43.95782" lon="7.02137">
        <ele>993.66</ele>
        <time>2015-03-18T12:48:28Z</time>
      </trkpt>
      <trkpt lat="43.95785" lon="7.02136">
        <ele>995.1</ele>
        <time>2015-03-18T12:48:39Z</time>
      </trkpt>
      <trkpt lat="43.9579" lon="7.02136">
        <ele>995.58</ele>
        <time>2015-03-18T12:48:50Z</time>
      </trkpt>
      <trkpt lat="43.95788" lon="7.02134">
        <ele>995.1</ele>
        <time>2015-03-18T12:48:56Z</time>
      </trkpt>
      <trkpt lat="43.95782" lon="7.02135">
        <ele>994.62</ele>
        <time>2015-03-18T12:49:06Z</time>
      </trkpt>
      <trkpt lat="43.95779" lon="7.02135">
        <ele>993.66</ele>
        <time>2015-03-18T12:49:18Z</time>
      </trkpt>
      <trkpt lat="43.95774" lon="7.02133">
        <ele>991.74</ele>
        <time>2015-03-18T12:49:29Z</time>
      </trkpt>
      <trkpt lat="43.95769" lon="7.0213">
        <ele>990.3</ele>
        <time>2015-03-18T12:49:38Z</time>
      </trkpt>
      <trkpt lat="43.95765" lon="7.02136">
        <ele>987.89</ele>
        <time>2015-03-18T12:49:48Z</time>
      </trkpt>
      <trkpt lat="43.95761" lon="7.0213">
        <ele>986.45</ele>
        <time>2015-03-18T12:49:56Z</time>
      </trkpt>
      <trkpt lat="43.9576" lon="7.02127">
        <ele>985.49</ele>
        <time>2015-03-18T12:50:00Z</time>
      </trkpt>
      <trkpt lat="43.9576" lon="7.02122">
        <ele>985.97</ele>
        <time>2015-03-18T12:50:11Z</time>
      </trkpt>
      <trkpt lat="43.95762" lon="7.02114">
        <ele>986.93</ele>
        <time>2015-03-18T12:50:22Z</time>
      </trkpt>
      <trkpt lat="43.95763" lon="7.02109">
        <ele>985.97</ele>
        <time>2015-03-18T12:50:28Z</time>
      </trkpt>
      <trkpt lat="43.95768" lon="7.02099">
        <ele>985.01</ele>
        <time>2015-03-18T12:50:40Z</time>
      </trkpt>
      <trkpt lat="43.95771" lon="7.02095">
        <ele>984.53</ele>
        <time>2015-03-18T12:50:54Z</time>
      </trkpt>
      <trkpt lat="43.95772" lon="7.02095">
        <ele>984.05</ele>
        <time>2015-03-18T12:51:06Z</time>
      </trkpt>
      <trkpt lat="43.95773" lon="7.02093">
        <ele>984.05</ele>
        <time>2015-03-18T12:51:26Z</time>
      </trkpt>
      <trkpt lat="43.95778" lon="7.02085">
        <ele>982.6</ele>
        <time>2015-03-18T12:51:36Z</time>
      </trkpt>
      <trkpt lat="43.9578" lon="7.02078">
        <ele>980.2</ele>
        <time>2015-03-18T12:51:46Z</time>
      </trkpt>
      <trkpt lat="43.95775" lon="7.02074">
        <ele>979.24</ele>
        <time>2015-03-18T12:51:51Z</time>
      </trkpt>
      <trkpt lat="43.95764" lon="7.02066">
        <ele>977.32</ele>
        <time>2015-03-18T12:52:02Z</time>
      </trkpt>
      <trkpt lat="43.95758" lon="7.02059">
        <ele>975.39</ele>
        <time>2015-03-18T12:52:09Z</time>
      </trkpt>
      <trkpt lat="43.95753" lon="7.02057">
        <ele>974.91</ele>
        <time>2015-03-18T12:52:12Z</time>
      </trkpt>
      <trkpt lat="43.95742" lon="7.0206">
        <ele>973.95</ele>
        <time>2015-03-18T12:52:22Z</time>
      </trkpt>
      <trkpt lat="43.95732" lon="7.02068">
        <ele>972.99</ele>
        <time>2015-03-18T12:52:33Z</time>
      </trkpt>
      <trkpt lat="43.95726" lon="7.02076">
        <ele>970.59</ele>
        <time>2015-03-18T12:52:42Z</time>
      </trkpt>
      <trkpt lat="43.95724" lon="7.02085">
        <ele>969.15</ele>
        <time>2015-03-18T12:52:50Z</time>
      </trkpt>
      <trkpt lat="43.95719" lon="7.0209">
        <ele>968.67</ele>
        <time>2015-03-18T12:52:56Z</time>
      </trkpt>
      <trkpt lat="43.95714" lon="7.02092">
        <ele>967.7</ele>
        <time>2015-03-18T12:53:00Z</time>
      </trkpt>
      <trkpt lat="43.95708" lon="7.02087">
        <ele>966.74</ele>
        <time>2015-03-18T12:53:10Z</time>
      </trkpt>
      <trkpt lat="43.95708" lon="7.02087">
        <ele>966.74</ele>
        <time>2015-03-18T12:53:25Z</time>
      </trkpt>
      <trkpt lat="43.95705" lon="7.02087">
        <ele>966.26</ele>
        <time>2015-03-18T12:53:30Z</time>
      </trkpt>
      <trkpt lat="43.95696" lon="7.02087">
        <ele>964.82</ele>
        <time>2015-03-18T12:53:42Z</time>
      </trkpt>
      <trkpt lat="43.95697" lon="7.02085">
        <ele>964.34</ele>
        <time>2015-03-18T12:53:54Z</time>
      </trkpt>
      <trkpt lat="43.95697" lon="7.02085">
        <ele>964.34</ele>
        <time>2015-03-18T12:54:09Z</time>
      </trkpt>
      <trkpt lat="43.95697" lon="7.02086">
        <ele>964.34</ele>
        <time>2015-03-18T12:54:24Z</time>
      </trkpt>
      <trkpt lat="43.95697" lon="7.02086">
        <ele>964.34</ele>
        <time>2015-03-18T12:54:37Z</time>
      </trkpt>
      <trkpt lat="43.95698" lon="7.02085">
        <ele>963.86</ele>
        <time>2015-03-18T12:54:52Z</time>
      </trkpt>
      <trkpt lat="43.95698" lon="7.02086">
        <ele>963.86</ele>
        <time>2015-03-18T12:55:13Z</time>
      </trkpt>
      <trkpt lat="43.95697" lon="7.02086">
        <ele>963.86</ele>
        <time>2015-03-18T12:55:37Z</time>
      </trkpt>
      <trkpt lat="43.95697" lon="7.02086">
        <ele>963.86</ele>
        <time>2015-03-18T12:55:55Z</time>
      </trkpt>
      <trkpt lat="43.95698" lon="7.02085">
        <ele>963.86</ele>
        <time>2015-03-18T12:56:20Z</time>
      </trkpt>
      <trkpt lat="43.95697" lon="7.02085">
        <ele>963.86</ele>
        <time>2015-03-18T12:56:47Z</time>
      </trkpt>
      <trkpt lat="43.95697" lon="7.02085">
        <ele>963.38</ele>
        <time>2015-03-18T12:57:07Z</time>
      </trkpt>
      <trkpt lat="43.95697" lon="7.02084">
        <ele>963.86</ele>
        <time>2015-03-18T12:57:30Z</time>
      </trkpt>
      <trkpt lat="43.95698" lon="7.02085">
        <ele>963.86</ele>
        <time>2015-03-18T12:57:55Z</time>
      </trkpt>
      <trkpt lat="43.95698" lon="7.02084">
        <ele>963.86</ele>
        <time>2015-03-18T12:58:17Z</time>
      </trkpt>
      <trkpt lat="43.95698" lon="7.02085">
        <ele>963.86</ele>
        <time>2015-03-18T12:58:41Z</time>
      </trkpt>
      <trkpt lat="43.95697" lon="7.02085">
        <ele>964.34</ele>
        <time>2015-03-18T12:59:05Z</time>
      </trkpt>
      <trkpt lat="43.95698" lon="7.02085">
        <ele>963.86</ele>
        <time>2015-03-18T12:59:28Z</time>
      </trkpt>
      <trkpt lat="43.95698" lon="7.02085">
        <ele>963.86</ele>
        <time>2015-03-18T12:59:51Z</time>
      </trkpt>
      <trkpt lat="43.95697" lon="7.02084">
        <ele>964.34</ele>
        <time>2015-03-18T13:00:13Z</time>
      </trkpt>
      <trkpt lat="43.95697" lon="7.02085">
        <ele>964.34</ele>
        <time>2015-03-18T13:00:39Z</time>
      </trkpt>
      <trkpt lat="43.95697" lon="7.02085">
        <ele>964.34</ele>
        <time>2015-03-18T13:01:05Z</time>
      </trkpt>
      <trkpt lat="43.95697" lon="7.02085">
        <ele>964.34</ele>
        <time>2015-03-18T13:01:29Z</time>
      </trkpt>
      <trkpt lat="43.95697" lon="7.02085">
        <ele>964.34</ele>
        <time>2015-03-18T13:01:51Z</time>
      </trkpt>
      <trkpt lat="43.95697" lon="7.02085">
        <ele>963.86</ele>
        <time>2015-03-18T13:02:15Z</time>
      </trkpt>
      <trkpt lat="43.95697" lon="7.02085">
        <ele>964.34</ele>
        <time>2015-03-18T13:02:37Z</time>
      </trkpt>
      <trkpt lat="43.95697" lon="7.02085">
        <ele>964.34</ele>
        <time>2015-03-18T13:03:04Z</time>
      </trkpt>
      <trkpt lat="43.95697" lon="7.02085">
        <ele>964.82</ele>
        <time>2015-03-18T13:03:27Z</time>
      </trkpt>
      <trkpt lat="43.95697" lon="7.02085">
        <ele>964.34</ele>
        <time>2015-03-18T13:03:50Z</time>
      </trkpt>
      <trkpt lat="43.95697" lon="7.02085">
        <ele>964.34</ele>
        <time>2015-03-18T13:04:15Z</time>
      </trkpt>
      <trkpt lat="43.95697" lon="7.02085">
        <ele>964.34</ele>
        <time>2015-03-18T13:04:34Z</time>
      </trkpt>
      <trkpt lat="43.95697" lon="7.02086">
        <ele>964.34</ele>
        <time>2015-03-18T13:04:47Z</time>
      </trkpt>
      <trkpt lat="43.95696" lon="7.02086">
        <ele>964.34</ele>
        <time>2015-03-18T13:05:10Z</time>
      </trkpt>
      <trkpt lat="43.95696" lon="7.02085">
        <ele>964.34</ele>
        <time>2015-03-18T13:05:41Z</time>
      </trkpt>
      <trkpt lat="43.95696" lon="7.02085">
        <ele>964.34</ele>
        <time>2015-03-18T13:06:04Z</time>
      </trkpt>
      <trkpt lat="43.95696" lon="7.02086">
        <ele>963.86</ele>
        <time>2015-03-18T13:06:30Z</time>
      </trkpt>
      <trkpt lat="43.95696" lon="7.02087">
        <ele>964.34</ele>
        <time>2015-03-18T13:06:57Z</time>
      </trkpt>
      <trkpt lat="43.95697" lon="7.02087">
        <ele>963.86</ele>
        <time>2015-03-18T13:07:25Z</time>
      </trkpt>
      <trkpt lat="43.95697" lon="7.02087">
        <ele>964.34</ele>
        <time>2015-03-18T13:07:54Z</time>
      </trkpt>
      <trkpt lat="43.95697" lon="7.02087">
        <ele>964.34</ele>
        <time>2015-03-18T13:08:21Z</time>
      </trkpt>
      <trkpt lat="43.95696" lon="7.02087">
        <ele>963.86</ele>
        <time>2015-03-18T13:08:46Z</time>
      </trkpt>
      <trkpt lat="43.95697" lon="7.02086">
        <ele>963.86</ele>
        <time>2015-03-18T13:09:14Z</time>
      </trkpt>
      <trkpt lat="43.95696" lon="7.02086">
        <ele>963.86</ele>
        <time>2015-03-18T13:09:45Z</time>
      </trkpt>
      <trkpt lat="43.95697" lon="7.02086">
        <ele>963.86</ele>
        <time>2015-03-18T13:10:05Z</time>
      </trkpt>
      <trkpt lat="43.95697" lon="7.02086">
        <ele>963.86</ele>
        <time>2015-03-18T13:10:29Z</time>
      </trkpt>
      <trkpt lat="43.95697" lon="7.02086">
        <ele>963.86</ele>
        <time>2015-03-18T13:10:50Z</time>
      </trkpt>
      <trkpt lat="43.95697" lon="7.02086">
        <ele>963.86</ele>
        <time>2015-03-18T13:11:18Z</time>
      </trkpt>
      <trkpt lat="43.95696" lon="7.02087">
        <ele>963.86</ele>
        <time>2015-03-18T13:11:40Z</time>
      </trkpt>
      <trkpt lat="43.95697" lon="7.02087">
        <ele>963.86</ele>
        <time>2015-03-18T13:12:06Z</time>
      </trkpt>
      <trkpt lat="43.95696" lon="7.02087">
        <ele>964.82</ele>
        <time>2015-03-18T13:12:23Z</time>
      </trkpt>
      <trkpt lat="43.95697" lon="7.02086">
        <ele>964.82</ele>
        <time>2015-03-18T13:12:43Z</time>
      </trkpt>
      <trkpt lat="43.95696" lon="7.02085">
        <ele>964.34</ele>
        <time>2015-03-18T13:12:57Z</time>
      </trkpt>
      <trkpt lat="43.95698" lon="7.02078">
        <ele>963.86</ele>
        <time>2015-03-18T13:13:03Z</time>
      </trkpt>
      <trkpt lat="43.95707" lon="7.02075">
        <ele>964.82</ele>
        <time>2015-03-18T13:13:14Z</time>
      </trkpt>
      <trkpt lat="43.95712" lon="7.02075">
        <ele>965.78</ele>
        <time>2015-03-18T13:13:25Z</time>
      </trkpt>
      <trkpt lat="43.9572" lon="7.02073">
        <ele>967.7</ele>
        <time>2015-03-18T13:13:36Z</time>
      </trkpt>
      <trkpt lat="43.95726" lon="7.0207">
        <ele>969.15</ele>
        <time>2015-03-18T13:13:46Z</time>
      </trkpt>
      <trkpt lat="43.95734" lon="7.02067">
        <ele>971.55</ele>
        <time>2015-03-18T13:13:57Z</time>
      </trkpt>
      <trkpt lat="43.95745" lon="7.02061">
        <ele>972.03</ele>
        <time>2015-03-18T13:14:07Z</time>
      </trkpt>
      <trkpt lat="43.95753" lon="7.02056">
        <ele>972.99</ele>
        <time>2015-03-18T13:14:19Z</time>
      </trkpt>
      <trkpt lat="43.95757" lon="7.02055">
        <ele>973.47</ele>
        <time>2015-03-18T13:14:23Z</time>
      </trkpt>
      <trkpt lat="43.95771" lon="7.02057">
        <ele>974.43</ele>
        <time>2015-03-18T13:14:34Z</time>
      </trkpt>
      <trkpt lat="43.95782" lon="7.02059">
        <ele>975.39</ele>
        <time>2015-03-18T13:14:44Z</time>
      </trkpt>
      <trkpt lat="43.95795" lon="7.02065">
        <ele>976.36</ele>
        <time>2015-03-18T13:14:55Z</time>
      </trkpt>
      <trkpt lat="43.95806" lon="7.0207">
        <ele>976.84</ele>
        <time>2015-03-18T13:15:07Z</time>
      </trkpt>
      <trkpt lat="43.9582" lon="7.02075">
        <ele>976.36</ele>
        <time>2015-03-18T13:15:20Z</time>
      </trkpt>
      <trkpt lat="43.95832" lon="7.02081">
        <ele>976.36</ele>
        <time>2015-03-18T13:15:31Z</time>
      </trkpt>
      <trkpt lat="43.95839" lon="7.02084">
        <ele>975.88</ele>
        <time>2015-03-18T13:15:39Z</time>
      </trkpt>
      <trkpt lat="43.95846" lon="7.02085">
        <ele>975.39</ele>
        <time>2015-03-18T13:15:49Z</time>
      </trkpt>
      <trkpt lat="43.95848" lon="7.02085">
        <ele>975.88</ele>
        <time>2015-03-18T13:16:01Z</time>
      </trkpt>
      <trkpt lat="43.95851" lon="7.02084">
        <ele>975.88</ele>
        <time>2015-03-18T13:16:12Z</time>
      </trkpt>
      <trkpt lat="43.95869" lon="7.02085">
        <ele>974.43</ele>
        <time>2015-03-18T13:16:24Z</time>
      </trkpt>
      <trkpt lat="43.9587" lon="7.02084">
        <ele>973.95</ele>
        <time>2015-03-18T13:16:29Z</time>
      </trkpt>
      <trkpt lat="43.95886" lon="7.02086">
        <ele>973.47</ele>
        <time>2015-03-18T13:16:34Z</time>
      </trkpt>
      <trkpt lat="43.95896" lon="7.02086">
        <ele>973.47</ele>
        <time>2015-03-18T13:16:40Z</time>
      </trkpt>
      <trkpt lat="43.95899" lon="7.02086">
        <ele>972.99</ele>
        <time>2015-03-18T13:16:42Z</time>
      </trkpt>
      <trkpt lat="43.95916" lon="7.02079">
        <ele>972.99</ele>
        <time>2015-03-18T13:16:53Z</time>
      </trkpt>
      <trkpt lat="43.95928" lon="7.02072">
        <ele>972.99</ele>
        <time>2015-03-18T13:17:02Z</time>
      </trkpt>
      <trkpt lat="43.95938" lon="7.02062">
        <ele>972.03</ele>
        <time>2015-03-18T13:17:12Z</time>
      </trkpt>
      <trkpt lat="43.95945" lon="7.02059">
        <ele>972.03</ele>
        <time>2015-03-18T13:17:19Z</time>
      </trkpt>
      <trkpt lat="43.95947" lon="7.02057">
        <ele>972.51</ele>
        <time>2015-03-18T13:17:21Z</time>
      </trkpt>
      <trkpt lat="43.9596" lon="7.02053">
        <ele>972.03</ele>
        <time>2015-03-18T13:17:33Z</time>
      </trkpt>
      <trkpt lat="43.95971" lon="7.0205">
        <ele>971.07</ele>
        <time>2015-03-18T13:17:45Z</time>
      </trkpt>
      <trkpt lat="43.95977" lon="7.02049">
        <ele>970.11</ele>
        <time>2015-03-18T13:17:55Z</time>
      </trkpt>
      <trkpt lat="43.95991" lon="7.0205">
        <ele>969.63</ele>
        <time>2015-03-18T13:18:07Z</time>
      </trkpt>
      <trkpt lat="43.96006" lon="7.0205">
        <ele>968.67</ele>
        <time>2015-03-18T13:18:19Z</time>
      </trkpt>
      <trkpt lat="43.96019" lon="7.02051">
        <ele>968.18</ele>
        <time>2015-03-18T13:18:30Z</time>
      </trkpt>
      <trkpt lat="43.96022" lon="7.02052">
        <ele>967.7</ele>
        <time>2015-03-18T13:18:33Z</time>
      </trkpt>
      <trkpt lat="43.96037" lon="7.02043">
        <ele>967.22</ele>
        <time>2015-03-18T13:18:41Z</time>
      </trkpt>
      <trkpt lat="43.96043" lon="7.02026">
        <ele>967.22</ele>
        <time>2015-03-18T13:18:53Z</time>
      </trkpt>
      <trkpt lat="43.96046" lon="7.02017">
        <ele>966.74</ele>
        <time>2015-03-18T13:18:59Z</time>
      </trkpt>
      <trkpt lat="43.96047" lon="7.01997">
        <ele>966.74</ele>
        <time>2015-03-18T13:19:12Z</time>
      </trkpt>
      <trkpt lat="43.96048" lon="7.01983">
        <ele>967.22</ele>
        <time>2015-03-18T13:19:18Z</time>
      </trkpt>
      <trkpt lat="43.96047" lon="7.01978">
        <ele>966.74</ele>
        <time>2015-03-18T13:19:21Z</time>
      </trkpt>
      <trkpt lat="43.96046" lon="7.01967">
        <ele>966.74</ele>
        <time>2015-03-18T13:19:32Z</time>
      </trkpt>
      <trkpt lat="43.96046" lon="7.01964">
        <ele>965.3</ele>
        <time>2015-03-18T13:19:40Z</time>
      </trkpt>
      <trkpt lat="43.96044" lon="7.01959">
        <ele>963.86</ele>
        <time>2015-03-18T13:19:44Z</time>
      </trkpt>
      <trkpt lat="43.96041" lon="7.0194">
        <ele>960.49</ele>
        <time>2015-03-18T13:19:56Z</time>
      </trkpt>
      <trkpt lat="43.96038" lon="7.01921">
        <ele>957.61</ele>
        <time>2015-03-18T13:20:08Z</time>
      </trkpt>
      <trkpt lat="43.96038" lon="7.01918">
        <ele>957.13</ele>
        <time>2015-03-18T13:20:10Z</time>
      </trkpt>
      <trkpt lat="43.96037" lon="7.01916">
        <ele>957.13</ele>
        <time>2015-03-18T13:20:11Z</time>
      </trkpt>
      <trkpt lat="43.96034" lon="7.01899">
        <ele>954.25</ele>
        <time>2015-03-18T13:20:22Z</time>
      </trkpt>
      <trkpt lat="43.96034" lon="7.01894">
        <ele>953.28</ele>
        <time>2015-03-18T13:20:25Z</time>
      </trkpt>
      <trkpt lat="43.96034" lon="7.0189">
        <ele>952.32</ele>
        <time>2015-03-18T13:20:28Z</time>
      </trkpt>
      <trkpt lat="43.96032" lon="7.01883">
        <ele>950.88</ele>
        <time>2015-03-18T13:20:32Z</time>
      </trkpt>
      <trkpt lat="43.96029" lon="7.01871">
        <ele>947.52</ele>
        <time>2015-03-18T13:20:42Z</time>
      </trkpt>
      <trkpt lat="43.96025" lon="7.01862">
        <ele>944.15</ele>
        <time>2015-03-18T13:20:52Z</time>
      </trkpt>
      <trkpt lat="43.96022" lon="7.01848">
        <ele>941.75</ele>
        <time>2015-03-18T13:21:00Z</time>
      </trkpt>
      <trkpt lat="43.96022" lon="7.01838">
        <ele>939.35</ele>
        <time>2015-03-18T13:21:08Z</time>
      </trkpt>
      <trkpt lat="43.96017" lon="7.01823">
        <ele>937.42</ele>
        <time>2015-03-18T13:21:19Z</time>
      </trkpt>
      <trkpt lat="43.9602" lon="7.01829">
        <ele>936.94</ele>
        <time>2015-03-18T13:21:34Z</time>
      </trkpt>
      <trkpt lat="43.96017" lon="7.01818">
        <ele>935.02</ele>
        <time>2015-03-18T13:21:43Z</time>
      </trkpt>
      <trkpt lat="43.96016" lon="7.01805">
        <ele>933.58</ele>
        <time>2015-03-18T13:21:51Z</time>
      </trkpt>
      <trkpt lat="43.96014" lon="7.01785">
        <ele>931.65</ele>
        <time>2015-03-18T13:22:02Z</time>
      </trkpt>
      <trkpt lat="43.96014" lon="7.0177">
        <ele>929.73</ele>
        <time>2015-03-18T13:22:11Z</time>
      </trkpt>
      <trkpt lat="43.96012" lon="7.01759">
        <ele>928.29</ele>
        <time>2015-03-18T13:22:18Z</time>
      </trkpt>
      <trkpt lat="43.96008" lon="7.01747">
        <ele>925.89</ele>
        <time>2015-03-18T13:22:28Z</time>
      </trkpt>
      <trkpt lat="43.96009" lon="7.01742">
        <ele>924.45</ele>
        <time>2015-03-18T13:22:33Z</time>
      </trkpt>
      <trkpt lat="43.96006" lon="7.01735">
        <ele>922.04</ele>
        <time>2015-03-18T13:22:41Z</time>
      </trkpt>
      <trkpt lat="43.96006" lon="7.01721">
        <ele>919.64</ele>
        <time>2015-03-18T13:22:50Z</time>
      </trkpt>
      <trkpt lat="43.9601" lon="7.01709">
        <ele>916.27</ele>
        <time>2015-03-18T13:23:00Z</time>
      </trkpt>
      <trkpt lat="43.96008" lon="7.01704">
        <ele>915.31</ele>
        <time>2015-03-18T13:23:04Z</time>
      </trkpt>
      <trkpt lat="43.96009" lon="7.017">
        <ele>914.35</ele>
        <time>2015-03-18T13:23:07Z</time>
      </trkpt>
      <trkpt lat="43.9601" lon="7.01693">
        <ele>912.91</ele>
        <time>2015-03-18T13:23:11Z</time>
      </trkpt>
      <trkpt lat="43.96005" lon="7.0168">
        <ele>909.54</ele>
        <time>2015-03-18T13:23:21Z</time>
      </trkpt>
      <trkpt lat="43.96012" lon="7.01667">
        <ele>907.62</ele>
        <time>2015-03-18T13:23:31Z</time>
      </trkpt>
      <trkpt lat="43.96014" lon="7.0165">
        <ele>904.26</ele>
        <time>2015-03-18T13:23:42Z</time>
      </trkpt>
      <trkpt lat="43.96016" lon="7.01637">
        <ele>901.85</ele>
        <time>2015-03-18T13:23:53Z</time>
      </trkpt>
      <trkpt lat="43.96017" lon="7.01625">
        <ele>899.93</ele>
        <time>2015-03-18T13:24:03Z</time>
      </trkpt>
      <trkpt lat="43.96015" lon="7.01615">
        <ele>898.01</ele>
        <time>2015-03-18T13:24:10Z</time>
      </trkpt>
      <trkpt lat="43.96014" lon="7.01602">
        <ele>895.61</ele>
        <time>2015-03-18T13:24:20Z</time>
      </trkpt>
      <trkpt lat="43.96018" lon="7.01586">
        <ele>892.24</ele>
        <time>2015-03-18T13:24:32Z</time>
      </trkpt>
      <trkpt lat="43.9602" lon="7.0157">
        <ele>888.88</ele>
        <time>2015-03-18T13:24:44Z</time>
      </trkpt>
      <trkpt lat="43.96026" lon="7.01556">
        <ele>886.47</ele>
        <time>2015-03-18T13:24:54Z</time>
      </trkpt>
      <trkpt lat="43.96026" lon="7.01555">
        <ele>885.99</ele>
        <time>2015-03-18T13:24:55Z</time>
      </trkpt>
      <trkpt lat="43.96034" lon="7.01544">
        <ele>884.07</ele>
        <time>2015-03-18T13:25:06Z</time>
      </trkpt>
      <trkpt lat="43.96038" lon="7.01529">
        <ele>881.19</ele>
        <time>2015-03-18T13:25:16Z</time>
      </trkpt>
      <trkpt lat="43.96042" lon="7.01512">
        <ele>878.3</ele>
        <time>2015-03-18T13:25:29Z</time>
      </trkpt>
      <trkpt lat="43.96045" lon="7.01498">
        <ele>876.38</ele>
        <time>2015-03-18T13:25:39Z</time>
      </trkpt>
      <trkpt lat="43.96049" lon="7.01484">
        <ele>874.46</ele>
        <time>2015-03-18T13:25:49Z</time>
      </trkpt>
      <trkpt lat="43.96054" lon="7.01474">
        <ele>873.5</ele>
        <time>2015-03-18T13:25:57Z</time>
      </trkpt>
      <trkpt lat="43.96056" lon="7.0147">
        <ele>873.5</ele>
        <time>2015-03-18T13:25:59Z</time>
      </trkpt>
      <trkpt lat="43.96061" lon="7.01467">
        <ele>873.01</ele>
        <time>2015-03-18T13:26:04Z</time>
      </trkpt>
      <trkpt lat="43.96063" lon="7.01458">
        <ele>872.05</ele>
        <time>2015-03-18T13:26:11Z</time>
      </trkpt>
      <trkpt lat="43.96069" lon="7.01434">
        <ele>870.61</ele>
        <time>2015-03-18T13:26:25Z</time>
      </trkpt>
      <trkpt lat="43.96071" lon="7.01415">
        <ele>868.69</ele>
        <time>2015-03-18T13:26:37Z</time>
      </trkpt>
      <trkpt lat="43.96073" lon="7.01395">
        <ele>866.29</ele>
        <time>2015-03-18T13:26:48Z</time>
      </trkpt>
      <trkpt lat="43.96077" lon="7.01379">
        <ele>864.36</ele>
        <time>2015-03-18T13:27:00Z</time>
      </trkpt>
      <trkpt lat="43.96077" lon="7.01369">
        <ele>863.4</ele>
        <time>2015-03-18T13:27:10Z</time>
      </trkpt>
      <trkpt lat="43.96078" lon="7.01371">
        <ele>863.4</ele>
        <time>2015-03-18T13:27:16Z</time>
      </trkpt>
      <trkpt lat="43.96078" lon="7.01384">
        <ele>864.84</ele>
        <time>2015-03-18T13:27:26Z</time>
      </trkpt>
      <trkpt lat="43.96078" lon="7.01385">
        <ele>864.84</ele>
        <time>2015-03-18T13:27:46Z</time>
      </trkpt>
      <trkpt lat="43.96077" lon="7.01376">
        <ele>863.88</ele>
        <time>2015-03-18T13:27:58Z</time>
      </trkpt>
      <trkpt lat="43.96076" lon="7.01374">
        <ele>863.88</ele>
        <time>2015-03-18T13:28:11Z</time>
      </trkpt>
      <trkpt lat="43.96074" lon="7.01367">
        <ele>861.96</ele>
        <time>2015-03-18T13:28:20Z</time>
      </trkpt>
      <trkpt lat="43.96068" lon="7.0136">
        <ele>860.04</ele>
        <time>2015-03-18T13:28:30Z</time>
      </trkpt>
      <trkpt lat="43.96067" lon="7.01362">
        <ele>859.08</ele>
        <time>2015-03-18T13:28:33Z</time>
      </trkpt>
      <trkpt lat="43.96066" lon="7.01364">
        <ele>859.08</ele>
        <time>2015-03-18T13:28:35Z</time>
      </trkpt>
      <trkpt lat="43.9606" lon="7.01372">
        <ele>857.15</ele>
        <time>2015-03-18T13:28:45Z</time>
      </trkpt>
      <trkpt lat="43.96053" lon="7.01381">
        <ele>855.23</ele>
        <time>2015-03-18T13:28:55Z</time>
      </trkpt>
      <trkpt lat="43.96044" lon="7.01387">
        <ele>852.83</ele>
        <time>2015-03-18T13:29:05Z</time>
      </trkpt>
      <trkpt lat="43.96043" lon="7.01386">
        <ele>851.87</ele>
        <time>2015-03-18T13:29:09Z</time>
      </trkpt>
      <trkpt lat="43.96044" lon="7.01378">
        <ele>849.94</ele>
        <time>2015-03-18T13:29:16Z</time>
      </trkpt>
      <trkpt lat="43.96043" lon="7.01363">
        <ele>847.54</ele>
        <time>2015-03-18T13:29:26Z</time>
      </trkpt>
      <trkpt lat="43.96042" lon="7.01352">
        <ele>845.62</ele>
        <time>2015-03-18T13:29:35Z</time>
      </trkpt>
      <trkpt lat="43.96042" lon="7.01339">
        <ele>843.21</ele>
        <time>2015-03-18T13:29:44Z</time>
      </trkpt>
      <trkpt lat="43.96041" lon="7.01329">
        <ele>840.81</ele>
        <time>2015-03-18T13:29:53Z</time>
      </trkpt>
      <trkpt lat="43.9604" lon="7.01322">
        <ele>837.93</ele>
        <time>2015-03-18T13:30:06Z</time>
      </trkpt>
      <trkpt lat="43.96034" lon="7.01298">
        <ele>835.52</ele>
        <time>2015-03-18T13:30:16Z</time>
      </trkpt>
      <trkpt lat="43.96033" lon="7.01281">
        <ele>833.12</ele>
        <time>2015-03-18T13:30:26Z</time>
      </trkpt>
      <trkpt lat="43.9603" lon="7.01273">
        <ele>830.24</ele>
        <time>2015-03-18T13:30:38Z</time>
      </trkpt>
      <trkpt lat="43.96022" lon="7.01271">
        <ele>827.83</ele>
        <time>2015-03-18T13:30:49Z</time>
      </trkpt>
      <trkpt lat="43.96018" lon="7.01261">
        <ele>825.43</ele>
        <time>2015-03-18T13:30:59Z</time>
      </trkpt>
      <trkpt lat="43.96017" lon="7.01252">
        <ele>823.99</ele>
        <time>2015-03-18T13:31:05Z</time>
      </trkpt>
      <trkpt lat="43.96009" lon="7.01237">
        <ele>821.1</ele>
        <time>2015-03-18T13:31:14Z</time>
      </trkpt>
      <trkpt lat="43.96007" lon="7.01237">
        <ele>820.62</ele>
        <time>2015-03-18T13:31:15Z</time>
      </trkpt>
      <trkpt lat="43.96" lon="7.01233">
        <ele>817.74</ele>
        <time>2015-03-18T13:31:25Z</time>
      </trkpt>
      <trkpt lat="43.95993" lon="7.01222">
        <ele>815.34</ele>
        <time>2015-03-18T13:31:35Z</time>
      </trkpt>
      <trkpt lat="43.9598" lon="7.01203">
        <ele>811.97</ele>
        <time>2015-03-18T13:31:49Z</time>
      </trkpt>
      <trkpt lat="43.95973" lon="7.01187">
        <ele>810.05</ele>
        <time>2015-03-18T13:32:00Z</time>
      </trkpt>
      <trkpt lat="43.95969" lon="7.01179">
        <ele>808.61</ele>
        <time>2015-03-18T13:32:06Z</time>
      </trkpt>
      <trkpt lat="43.95956" lon="7.01173">
        <ele>805.24</ele>
        <time>2015-03-18T13:32:18Z</time>
      </trkpt>
      <trkpt lat="43.95947" lon="7.01167">
        <ele>803.32</ele>
        <time>2015-03-18T13:32:27Z</time>
      </trkpt>
      <trkpt lat="43.95935" lon="7.01162">
        <ele>799.95</ele>
        <time>2015-03-18T13:32:40Z</time>
      </trkpt>
      <trkpt lat="43.95925" lon="7.0116">
        <ele>797.07</ele>
        <time>2015-03-18T13:32:50Z</time>
      </trkpt>
      <trkpt lat="43.95916" lon="7.01162">
        <ele>793.71</ele>
        <time>2015-03-18T13:33:00Z</time>
      </trkpt>
      <trkpt lat="43.95907" lon="7.01153">
        <ele>792.26</ele>
        <time>2015-03-18T13:33:11Z</time>
      </trkpt>
      <trkpt lat="43.95907" lon="7.01156">
        <ele>790.34</ele>
        <time>2015-03-18T13:33:16Z</time>
      </trkpt>
      <trkpt lat="43.95902" lon="7.01153">
        <ele>788.42</ele>
        <time>2015-03-18T13:33:25Z</time>
      </trkpt>
      <trkpt lat="43.95896" lon="7.01148">
        <ele>786.5</ele>
        <time>2015-03-18T13:33:34Z</time>
      </trkpt>
      <trkpt lat="43.95887" lon="7.01133">
        <ele>783.13</ele>
        <time>2015-03-18T13:33:47Z</time>
      </trkpt>
      <trkpt lat="43.95884" lon="7.01134">
        <ele>781.69</ele>
        <time>2015-03-18T13:33:55Z</time>
      </trkpt>
      <trkpt lat="43.95881" lon="7.01119">
        <ele>778.81</ele>
        <time>2015-03-18T13:34:08Z</time>
      </trkpt>
      <trkpt lat="43.95875" lon="7.01108">
        <ele>776.4</ele>
        <time>2015-03-18T13:34:18Z</time>
      </trkpt>
      <trkpt lat="43.9587" lon="7.01117">
        <ele>774.48</ele>
        <time>2015-03-18T13:34:28Z</time>
      </trkpt>
      <trkpt lat="43.95867" lon="7.01125">
        <ele>772.08</ele>
        <time>2015-03-18T13:34:37Z</time>
      </trkpt>
      <trkpt lat="43.95864" lon="7.01119">
        <ele>770.15</ele>
        <time>2015-03-18T13:34:47Z</time>
      </trkpt>
      <trkpt lat="43.95865" lon="7.01107">
        <ele>767.75</ele>
        <time>2015-03-18T13:34:58Z</time>
      </trkpt>
      <trkpt lat="43.95865" lon="7.01095">
        <ele>766.31</ele>
        <time>2015-03-18T13:35:07Z</time>
      </trkpt>
      <trkpt lat="43.95866" lon="7.01085">
        <ele>765.35</ele>
        <time>2015-03-18T13:35:16Z</time>
      </trkpt>
      <trkpt lat="43.95865" lon="7.01074">
        <ele>761.98</ele>
        <time>2015-03-18T13:35:28Z</time>
      </trkpt>
      <trkpt lat="43.95854" lon="7.01076">
        <ele>759.58</ele>
        <time>2015-03-18T13:35:39Z</time>
      </trkpt>
      <trkpt lat="43.95851" lon="7.01081">
        <ele>759.1</ele>
        <time>2015-03-18T13:35:43Z</time>
      </trkpt>
      <trkpt lat="43.95846" lon="7.01085">
        <ele>756.69</ele>
        <time>2015-03-18T13:35:53Z</time>
      </trkpt>
      <trkpt lat="43.95849" lon="7.01072">
        <ele>754.77</ele>
        <time>2015-03-18T13:36:05Z</time>
      </trkpt>
      <trkpt lat="43.95848" lon="7.01065">
        <ele>751.89</ele>
        <time>2015-03-18T13:36:16Z</time>
      </trkpt>
      <trkpt lat="43.95844" lon="7.0106">
        <ele>749.97</ele>
        <time>2015-03-18T13:36:26Z</time>
      </trkpt>
      <trkpt lat="43.95838" lon="7.0107">
        <ele>747.08</ele>
        <time>2015-03-18T13:36:37Z</time>
      </trkpt>
      <trkpt lat="43.9583" lon="7.01076">
        <ele>744.2</ele>
        <time>2015-03-18T13:36:48Z</time>
      </trkpt>
      <trkpt lat="43.95821" lon="7.01083">
        <ele>742.76</ele>
        <time>2015-03-18T13:36:56Z</time>
      </trkpt>
      <trkpt lat="43.95815" lon="7.01086">
        <ele>739.87</ele>
        <time>2015-03-18T13:37:06Z</time>
      </trkpt>
      <trkpt lat="43.95807" lon="7.01098">
        <ele>737.95</ele>
        <time>2015-03-18T13:37:16Z</time>
      </trkpt>
      <trkpt lat="43.95802" lon="7.01109">
        <ele>735.55</ele>
        <time>2015-03-18T13:37:26Z</time>
      </trkpt>
      <trkpt lat="43.95797" lon="7.01119">
        <ele>732.66</ele>
        <time>2015-03-18T13:37:35Z</time>
      </trkpt>
      <trkpt lat="43.95797" lon="7.0112">
        <ele>732.66</ele>
        <time>2015-03-18T13:37:36Z</time>
      </trkpt>
      <trkpt lat="43.95796" lon="7.01134">
        <ele>730.26</ele>
        <time>2015-03-18T13:37:47Z</time>
      </trkpt>
      <trkpt lat="43.95797" lon="7.01141">
        <ele>728.34</ele>
        <time>2015-03-18T13:37:57Z</time>
      </trkpt>
      <trkpt lat="43.95788" lon="7.01141">
        <ele>724.97</ele>
        <time>2015-03-18T13:38:09Z</time>
      </trkpt>
      <trkpt lat="43.95783" lon="7.01126">
        <ele>722.09</ele>
        <time>2015-03-18T13:38:18Z</time>
      </trkpt>
      <trkpt lat="43.95776" lon="7.01115">
        <ele>719.2</ele>
        <time>2015-03-18T13:38:29Z</time>
      </trkpt>
      <trkpt lat="43.9577" lon="7.01106">
        <ele>716.32</ele>
        <time>2015-03-18T13:38:41Z</time>
      </trkpt>
      <trkpt lat="43.95767" lon="7.01094">
        <ele>713.92</ele>
        <time>2015-03-18T13:38:50Z</time>
      </trkpt>
      <trkpt lat="43.95766" lon="7.0109">
        <ele>712.47</ele>
        <time>2015-03-18T13:38:54Z</time>
      </trkpt>
      <trkpt lat="43.95763" lon="7.01067">
        <ele>709.59</ele>
        <time>2015-03-18T13:39:07Z</time>
      </trkpt>
      <trkpt lat="43.95761" lon="7.01057">
        <ele>708.63</ele>
        <time>2015-03-18T13:39:15Z</time>
      </trkpt>
      <trkpt lat="43.95763" lon="7.01061">
        <ele>708.15</ele>
        <time>2015-03-18T13:39:38Z</time>
      </trkpt>
      <trkpt lat="43.95763" lon="7.01061">
        <ele>708.15</ele>
        <time>2015-03-18T13:40:04Z</time>
      </trkpt>
      <trkpt lat="43.95764" lon="7.01059">
        <ele>708.15</ele>
        <time>2015-03-18T13:40:34Z</time>
      </trkpt>
      <trkpt lat="43.95764" lon="7.01059">
        <ele>708.15</ele>
        <time>2015-03-18T13:40:58Z</time>
      </trkpt>
      <trkpt lat="43.95763" lon="7.01056">
        <ele>705.75</ele>
        <time>2015-03-18T13:41:11Z</time>
      </trkpt>
      <trkpt lat="43.95764" lon="7.01045">
        <ele>703.34</ele>
        <time>2015-03-18T13:41:20Z</time>
      </trkpt>
      <trkpt lat="43.95763" lon="7.01034">
        <ele>700.46</ele>
        <time>2015-03-18T13:41:30Z</time>
      </trkpt>
      <trkpt lat="43.95753" lon="7.01008">
        <ele>699.5</ele>
        <time>2015-03-18T13:41:41Z</time>
      </trkpt>
      <trkpt lat="43.95743" lon="7.01001">
        <ele>697.57</ele>
        <time>2015-03-18T13:41:52Z</time>
      </trkpt>
      <trkpt lat="43.9574" lon="7.01003">
        <ele>696.61</ele>
        <time>2015-03-18T13:42:04Z</time>
      </trkpt>
      <trkpt lat="43.95736" lon="7.01005">
        <ele>694.21</ele>
        <time>2015-03-18T13:42:13Z</time>
      </trkpt>
      <trkpt lat="43.95737" lon="7.01011">
        <ele>691.81</ele>
        <time>2015-03-18T13:42:23Z</time>
      </trkpt>
      <trkpt lat="43.95735" lon="7.01012">
        <ele>690.84</ele>
        <time>2015-03-18T13:42:25Z</time>
      </trkpt>
      <trkpt lat="43.95727" lon="7.01008">
        <ele>687.96</ele>
        <time>2015-03-18T13:42:35Z</time>
      </trkpt>
      <trkpt lat="43.95719" lon="7.01005">
        <ele>685.08</ele>
        <time>2015-03-18T13:42:45Z</time>
      </trkpt>
      <trkpt lat="43.9571" lon="7.01003">
        <ele>683.15</ele>
        <time>2015-03-18T13:42:58Z</time>
      </trkpt>
      <trkpt lat="43.95706" lon="7.01">
        <ele>680.75</ele>
        <time>2015-03-18T13:43:06Z</time>
      </trkpt>
      <trkpt lat="43.95698" lon="7.0099">
        <ele>678.35</ele>
        <time>2015-03-18T13:43:17Z</time>
      </trkpt>
      <trkpt lat="43.95684" lon="7.00992">
        <ele>675.46</ele>
        <time>2015-03-18T13:43:27Z</time>
      </trkpt>
      <trkpt lat="43.95674" lon="7.00982">
        <ele>672.58</ele>
        <time>2015-03-18T13:43:39Z</time>
      </trkpt>
      <trkpt lat="43.95665" lon="7.00982">
        <ele>669.22</ele>
        <time>2015-03-18T13:43:50Z</time>
      </trkpt>
      <trkpt lat="43.95664" lon="7.00982">
        <ele>668.73</ele>
        <time>2015-03-18T13:43:51Z</time>
      </trkpt>
      <trkpt lat="43.95657" lon="7.0098">
        <ele>666.33</ele>
        <time>2015-03-18T13:44:02Z</time>
      </trkpt>
      <trkpt lat="43.95648" lon="7.00978">
        <ele>663.93</ele>
        <time>2015-03-18T13:44:14Z</time>
      </trkpt>
      <trkpt lat="43.95638" lon="7.00979">
        <ele>661.52</ele>
        <time>2015-03-18T13:44:25Z</time>
      </trkpt>
      <trkpt lat="43.95627" lon="7.00974">
        <ele>658.64</ele>
        <time>2015-03-18T13:44:35Z</time>
      </trkpt>
      <trkpt lat="43.95615" lon="7.00962">
        <ele>655.28</ele>
        <time>2015-03-18T13:44:47Z</time>
      </trkpt>
      <trkpt lat="43.95613" lon="7.00959">
        <ele>654.8</ele>
        <time>2015-03-18T13:44:49Z</time>
      </trkpt>
      <trkpt lat="43.95602" lon="7.00944">
        <ele>652.87</ele>
        <time>2015-03-18T13:45:03Z</time>
      </trkpt>
      <trkpt lat="43.95592" lon="7.00933">
        <ele>650.47</ele>
        <time>2015-03-18T13:45:14Z</time>
      </trkpt>
      <trkpt lat="43.95584" lon="7.00926">
        <ele>647.59</ele>
        <time>2015-03-18T13:45:26Z</time>
      </trkpt>
      <trkpt lat="43.95578" lon="7.00918">
        <ele>644.22</ele>
        <time>2015-03-18T13:45:36Z</time>
      </trkpt>
      <trkpt lat="43.95574" lon="7.00913">
        <ele>643.26</ele>
        <time>2015-03-18T13:45:40Z</time>
      </trkpt>
      <trkpt lat="43.95567" lon="7.00902">
        <ele>640.86</ele>
        <time>2015-03-18T13:45:51Z</time>
      </trkpt>
      <trkpt lat="43.95558" lon="7.00898">
        <ele>638.45</ele>
        <time>2015-03-18T13:46:04Z</time>
      </trkpt>
      <trkpt lat="43.9555" lon="7.00891">
        <ele>636.05</ele>
        <time>2015-03-18T13:46:16Z</time>
      </trkpt>
      <trkpt lat="43.95547" lon="7.00881">
        <ele>635.09</ele>
        <time>2015-03-18T13:46:25Z</time>
      </trkpt>
      <trkpt lat="43.95542" lon="7.00871">
        <ele>633.65</ele>
        <time>2015-03-18T13:46:37Z</time>
      </trkpt>
      <trkpt lat="43.9554" lon="7.00877">
        <ele>632.2</ele>
        <time>2015-03-18T13:46:47Z</time>
      </trkpt>
      <trkpt lat="43.9554" lon="7.00879">
        <ele>632.68</ele>
        <time>2015-03-18T13:47:04Z</time>
      </trkpt>
      <trkpt lat="43.95538" lon="7.00883">
        <ele>629.32</ele>
        <time>2015-03-18T13:47:14Z</time>
      </trkpt>
      <trkpt lat="43.95531" lon="7.0088">
        <ele>626.92</ele>
        <time>2015-03-18T13:47:24Z</time>
      </trkpt>
      <trkpt lat="43.95528" lon="7.00874">
        <ele>625.47</ele>
        <time>2015-03-18T13:47:34Z</time>
      </trkpt>
      <trkpt lat="43.95527" lon="7.00868">
        <ele>623.55</ele>
        <time>2015-03-18T13:47:45Z</time>
      </trkpt>
      <trkpt lat="43.95529" lon="7.00871">
        <ele>620.67</ele>
        <time>2015-03-18T13:47:56Z</time>
      </trkpt>
      <trkpt lat="43.95523" lon="7.00877">
        <ele>618.26</ele>
        <time>2015-03-18T13:48:06Z</time>
      </trkpt>
      <trkpt lat="43.95521" lon="7.00876">
        <ele>615.86</ele>
        <time>2015-03-18T13:48:18Z</time>
      </trkpt>
      <trkpt lat="43.9552" lon="7.0088">
        <ele>614.42</ele>
        <time>2015-03-18T13:48:35Z</time>
      </trkpt>
      <trkpt lat="43.95524" lon="7.00881">
        <ele>618.26</ele>
        <time>2015-03-18T13:48:47Z</time>
      </trkpt>
      <trkpt lat="43.95524" lon="7.00881">
        <ele>616.34</ele>
        <time>2015-03-18T13:48:48Z</time>
      </trkpt>
      <trkpt lat="43.95524" lon="7.00881">
        <ele>610.09</ele>
        <time>2015-03-18T13:48:49Z</time>
      </trkpt>
      <trkpt lat="43.95524" lon="7.00881">
        <ele>611.54</ele>
        <time>2015-03-18T13:48:50Z</time>
      </trkpt>
      <trkpt lat="43.95524" lon="7.00881">
        <ele>615.38</ele>
        <time>2015-03-18T13:48:51Z</time>
      </trkpt>
      <trkpt lat="43.95523" lon="7.00881">
        <ele>615.86</ele>
        <time>2015-03-18T13:49:01Z</time>
      </trkpt>
      <trkpt lat="43.95523" lon="7.00881">
        <ele>610.09</ele>
        <time>2015-03-18T13:49:06Z</time>
      </trkpt>
      <trkpt lat="43.95523" lon="7.00881">
        <ele>613.94</ele>
        <time>2015-03-18T13:49:07Z</time>
      </trkpt>
      <trkpt lat="43.95523" lon="7.00881">
        <ele>615.38</ele>
        <time>2015-03-18T13:49:09Z</time>
      </trkpt>
      <trkpt lat="43.95522" lon="7.0088">
        <ele>614.42</ele>
        <time>2015-03-18T13:49:16Z</time>
      </trkpt>
      <trkpt lat="43.95522" lon="7.0088">
        <ele>618.26</ele>
        <time>2015-03-18T13:49:18Z</time>
      </trkpt>
      <trkpt lat="43.95522" lon="7.0088">
        <ele>616.34</ele>
        <time>2015-03-18T13:49:19Z</time>
      </trkpt>
      <trkpt lat="43.95512" lon="7.00877">
        <ele>615.38</ele>
        <time>2015-03-18T13:49:41Z</time>
      </trkpt>
      <trkpt lat="43.95515" lon="7.00877">
        <ele>615.86</ele>
        <time>2015-03-18T13:49:54Z</time>
      </trkpt>
      <trkpt lat="43.95518" lon="7.00875">
        <ele>610.57</ele>
        <time>2015-03-18T13:50:08Z</time>
      </trkpt>
      <trkpt lat="43.95518" lon="7.00875">
        <ele>612.02</ele>
        <time>2015-03-18T13:50:09Z</time>
      </trkpt>
      <trkpt lat="43.95518" lon="7.00874">
        <ele>615.86</ele>
        <time>2015-03-18T13:50:11Z</time>
      </trkpt>
      <trkpt lat="43.95517" lon="7.00871">
        <ele>624.03</ele>
        <time>2015-03-18T13:50:14Z</time>
      </trkpt>
      <trkpt lat="43.95517" lon="7.00871">
        <ele>616.82</ele>
        <time>2015-03-18T13:50:15Z</time>
      </trkpt>
      <trkpt lat="43.95515" lon="7.00867">
        <ele>615.38</ele>
        <time>2015-03-18T13:50:17Z</time>
      </trkpt>
      <trkpt lat="43.95512" lon="7.00871">
        <ele>615.38</ele>
        <time>2015-03-18T13:50:24Z</time>
      </trkpt>
      <trkpt lat="43.95514" lon="7.00877">
        <ele>615.86</ele>
        <time>2015-03-18T13:50:37Z</time>
      </trkpt>
      <trkpt lat="43.95509" lon="7.00873">
        <ele>615.38</ele>
        <time>2015-03-18T13:50:48Z</time>
      </trkpt>
      <trkpt lat="43.95505" lon="7.00869">
        <ele>615.38</ele>
        <time>2015-03-18T13:51:01Z</time>
      </trkpt>
      <trkpt lat="43.95496" lon="7.00865">
        <ele>612.98</ele>
        <time>2015-03-18T13:51:12Z</time>
      </trkpt>
      <trkpt lat="43.95484" lon="7.00866">
        <ele>611.54</ele>
        <time>2015-03-18T13:51:24Z</time>
      </trkpt>
      <trkpt lat="43.95478" lon="7.00864">
        <ele>610.09</ele>
        <time>2015-03-18T13:51:31Z</time>
      </trkpt>
      <trkpt lat="43.95473" lon="7.00858">
        <ele>608.65</ele>
        <time>2015-03-18T13:51:40Z</time>
      </trkpt>
      <trkpt lat="43.95468" lon="7.00845">
        <ele>607.21</ele>
        <time>2015-03-18T13:51:50Z</time>
      </trkpt>
      <trkpt lat="43.95462" lon="7.00841">
        <ele>606.73</ele>
        <time>2015-03-18T13:52:01Z</time>
      </trkpt>
      <trkpt lat="43.95449" lon="7.00836">
        <ele>605.29</ele>
        <time>2015-03-18T13:52:13Z</time>
      </trkpt>
      <trkpt lat="43.95448" lon="7.00836">
        <ele>604.81</ele>
        <time>2015-03-18T13:52:14Z</time>
      </trkpt>
      <trkpt lat="43.95433" lon="7.00838">
        <ele>602.88</ele>
        <time>2015-03-18T13:52:28Z</time>
      </trkpt>
      <trkpt lat="43.95423" lon="7.00839">
        <ele>601.44</ele>
        <time>2015-03-18T13:52:39Z</time>
      </trkpt>
      <trkpt lat="43.95419" lon="7.00829">
        <ele>600</ele>
        <time>2015-03-18T13:52:52Z</time>
      </trkpt>
      <trkpt lat="43.95412" lon="7.00832">
        <ele>599.04</ele>
        <time>2015-03-18T13:53:04Z</time>
      </trkpt>
      <trkpt lat="43.95399" lon="7.0084">
        <ele>597.6</ele>
        <time>2015-03-18T13:53:15Z</time>
      </trkpt>
      <trkpt lat="43.95384" lon="7.00844">
        <ele>595.67</ele>
        <time>2015-03-18T13:53:30Z</time>
      </trkpt>
      <trkpt lat="43.95378" lon="7.00844">
        <ele>595.19</ele>
        <time>2015-03-18T13:53:37Z</time>
      </trkpt>
      <trkpt lat="43.95363" lon="7.00847">
        <ele>594.23</ele>
        <time>2015-03-18T13:53:46Z</time>
      </trkpt>
      <trkpt lat="43.95339" lon="7.00857">
        <ele>593.75</ele>
        <time>2015-03-18T13:54:00Z</time>
      </trkpt>
      <trkpt lat="43.95304" lon="7.00851">
        <ele>594.71</ele>
        <time>2015-03-18T13:54:14Z</time>
      </trkpt>
      <trkpt lat="43.95292" lon="7.00849">
        <ele>595.67</ele>
        <time>2015-03-18T13:54:26Z</time>
      </trkpt>
      <trkpt lat="43.95288" lon="7.00848">
        <ele>594.23</ele>
        <time>2015-03-18T13:54:40Z</time>
      </trkpt>
      <trkpt lat="43.95284" lon="7.00847">
        <ele>593.75</ele>
        <time>2015-03-18T13:54:51Z</time>
      </trkpt>
      <trkpt lat="43.95278" lon="7.00845">
        <ele>590.87</ele>
        <time>2015-03-18T13:55:04Z</time>
      </trkpt>
      <trkpt lat="43.95273" lon="7.00845">
        <ele>587.98</ele>
        <time>2015-03-18T13:55:14Z</time>
      </trkpt>
      <trkpt lat="43.95265" lon="7.0085">
        <ele>586.06</ele>
        <time>2015-03-18T13:55:25Z</time>
      </trkpt>
      <trkpt lat="43.9526" lon="7.00845">
        <ele>586.54</ele>
        <time>2015-03-18T13:55:37Z</time>
      </trkpt>
      <trkpt lat="43.95258" lon="7.00851">
        <ele>586.54</ele>
        <time>2015-03-18T13:55:52Z</time>
      </trkpt>
      <trkpt lat="43.95259" lon="7.0085">
        <ele>586.06</ele>
        <time>2015-03-18T13:56:07Z</time>
      </trkpt>
      <trkpt lat="43.95259" lon="7.00849">
        <ele>585.58</ele>
        <time>2015-03-18T13:56:27Z</time>
      </trkpt>
      <trkpt lat="43.95252" lon="7.00841">
        <ele>584.14</ele>
        <time>2015-03-18T13:56:37Z</time>
      </trkpt>
      <trkpt lat="43.95251" lon="7.00824">
        <ele>582.22</ele>
        <time>2015-03-18T13:56:48Z</time>
      </trkpt>
      <trkpt lat="43.95251" lon="7.00812">
        <ele>580.77</ele>
        <time>2015-03-18T13:56:57Z</time>
      </trkpt>
      <trkpt lat="43.95245" lon="7.00801">
        <ele>578.85</ele>
        <time>2015-03-18T13:57:08Z</time>
      </trkpt>
      <trkpt lat="43.95244" lon="7.008">
        <ele>578.37</ele>
        <time>2015-03-18T13:57:10Z</time>
      </trkpt>
      <trkpt lat="43.95237" lon="7.00788">
        <ele>576.45</ele>
        <time>2015-03-18T13:57:22Z</time>
      </trkpt>
      <trkpt lat="43.95231" lon="7.00777">
        <ele>574.53</ele>
        <time>2015-03-18T13:57:33Z</time>
      </trkpt>
      <trkpt lat="43.95223" lon="7.00772">
        <ele>573.08</ele>
        <time>2015-03-18T13:57:42Z</time>
      </trkpt>
      <trkpt lat="43.95213" lon="7.00767">
        <ele>570.2</ele>
        <time>2015-03-18T13:57:52Z</time>
      </trkpt>
      <trkpt lat="43.952" lon="7.00764">
        <ele>566.35</ele>
        <time>2015-03-18T13:58:04Z</time>
      </trkpt>
      <trkpt lat="43.95188" lon="7.00754">
        <ele>563.95</ele>
        <time>2015-03-18T13:58:14Z</time>
      </trkpt>
      <trkpt lat="43.95177" lon="7.0075">
        <ele>561.07</ele>
        <time>2015-03-18T13:58:25Z</time>
      </trkpt>
      <trkpt lat="43.95169" lon="7.00741">
        <ele>560.11</ele>
        <time>2015-03-18T13:58:37Z</time>
      </trkpt>
      <trkpt lat="43.95164" lon="7.00733">
        <ele>558.66</ele>
        <time>2015-03-18T13:58:45Z</time>
      </trkpt>
      <trkpt lat="43.95158" lon="7.00724">
        <ele>557.22</ele>
        <time>2015-03-18T13:58:53Z</time>
      </trkpt>
      <trkpt lat="43.95153" lon="7.00715">
        <ele>553.86</ele>
        <time>2015-03-18T13:59:03Z</time>
      </trkpt>
      <trkpt lat="43.95151" lon="7.00713">
        <ele>552.9</ele>
        <time>2015-03-18T13:59:08Z</time>
      </trkpt>
      <trkpt lat="43.95147" lon="7.00711">
        <ele>550.01</ele>
        <time>2015-03-18T13:59:19Z</time>
      </trkpt>
      <trkpt lat="43.95145" lon="7.00703">
        <ele>547.61</ele>
        <time>2015-03-18T13:59:29Z</time>
      </trkpt>
      <trkpt lat="43.95143" lon="7.00698">
        <ele>546.65</ele>
        <time>2015-03-18T13:59:37Z</time>
      </trkpt>
      <trkpt lat="43.95135" lon="7.00704">
        <ele>548.09</ele>
        <time>2015-03-18T13:59:48Z</time>
      </trkpt>
      <trkpt lat="43.95122" lon="7.00703">
        <ele>547.61</ele>
        <time>2015-03-18T13:59:59Z</time>
      </trkpt>
      <trkpt lat="43.95112" lon="7.007">
        <ele>545.69</ele>
        <time>2015-03-18T14:00:09Z</time>
      </trkpt>
      <trkpt lat="43.95107" lon="7.00698">
        <ele>542.8</ele>
        <time>2015-03-18T14:00:21Z</time>
      </trkpt>
      <trkpt lat="43.95105" lon="7.00698">
        <ele>541.36</ele>
        <time>2015-03-18T14:00:27Z</time>
      </trkpt>
      <trkpt lat="43.95101" lon="7.00704">
        <ele>540.88</ele>
        <time>2015-03-18T14:00:38Z</time>
      </trkpt>
      <trkpt lat="43.95094" lon="7.00715">
        <ele>538.48</ele>
        <time>2015-03-18T14:00:46Z</time>
      </trkpt>
      <trkpt lat="43.95088" lon="7.00719">
        <ele>537.51</ele>
        <time>2015-03-18T14:00:50Z</time>
      </trkpt>
      <trkpt lat="43.95082" lon="7.00717">
        <ele>537.51</ele>
        <time>2015-03-18T14:01:00Z</time>
      </trkpt>
      <trkpt lat="43.95079" lon="7.00717">
        <ele>537.03</ele>
        <time>2015-03-18T14:01:22Z</time>
      </trkpt>
      <trkpt lat="43.95078" lon="7.00715">
        <ele>535.11</ele>
        <time>2015-03-18T14:01:30Z</time>
      </trkpt>
      <trkpt lat="43.95075" lon="7.00714">
        <ele>532.71</ele>
        <time>2015-03-18T14:01:41Z</time>
      </trkpt>
      <trkpt lat="43.95065" lon="7.00717">
        <ele>530.3</ele>
        <time>2015-03-18T14:01:51Z</time>
      </trkpt>
      <trkpt lat="43.95064" lon="7.00709">
        <ele>529.34</ele>
        <time>2015-03-18T14:02:04Z</time>
      </trkpt>
      <trkpt lat="43.95066" lon="7.00703">
        <ele>529.34</ele>
        <time>2015-03-18T14:02:19Z</time>
      </trkpt>
      <trkpt lat="43.95069" lon="7.00703">
        <ele>529.82</ele>
        <time>2015-03-18T14:02:35Z</time>
      </trkpt>
      <trkpt lat="43.95068" lon="7.00704">
        <ele>529.34</ele>
        <time>2015-03-18T14:02:39Z</time>
      </trkpt>
      <trkpt lat="43.95064" lon="7.00702">
        <ele>528.86</ele>
        <time>2015-03-18T14:02:49Z</time>
      </trkpt>
      <trkpt lat="43.95063" lon="7.00699">
        <ele>529.82</ele>
        <time>2015-03-18T14:03:05Z</time>
      </trkpt>
      <trkpt lat="43.95058" lon="7.00692">
        <ele>529.34</ele>
        <time>2015-03-18T14:03:14Z</time>
      </trkpt>
      <trkpt lat="43.95056" lon="7.00689">
        <ele>528.86</ele>
        <time>2015-03-18T14:03:16Z</time>
      </trkpt>
      <trkpt lat="43.95043" lon="7.00677">
        <ele>526.94</ele>
        <time>2015-03-18T14:03:28Z</time>
      </trkpt>
      <trkpt lat="43.95035" lon="7.0067">
        <ele>528.38</ele>
        <time>2015-03-18T14:03:37Z</time>
      </trkpt>
      <trkpt lat="43.95025" lon="7.00661">
        <ele>527.9</ele>
        <time>2015-03-18T14:03:49Z</time>
      </trkpt>
      <trkpt lat="43.95022" lon="7.00655">
        <ele>527.42</ele>
        <time>2015-03-18T14:03:54Z</time>
      </trkpt>
      <trkpt lat="43.9502" lon="7.00653">
        <ele>527.42</ele>
        <time>2015-03-18T14:03:56Z</time>
      </trkpt>
      <trkpt lat="43.9501" lon="7.00643">
        <ele>526.94</ele>
        <time>2015-03-18T14:04:07Z</time>
      </trkpt>
      <trkpt lat="43.95006" lon="7.00641">
        <ele>527.42</ele>
        <time>2015-03-18T14:04:11Z</time>
      </trkpt>
      <trkpt lat="43.94996" lon="7.00633">
        <ele>524.54</ele>
        <time>2015-03-18T14:04:23Z</time>
      </trkpt>
      <trkpt lat="43.94994" lon="7.00623">
        <ele>522.61</ele>
        <time>2015-03-18T14:04:33Z</time>
      </trkpt>
      <trkpt lat="43.94994" lon="7.00613">
        <ele>521.65</ele>
        <time>2015-03-18T14:04:43Z</time>
      </trkpt>
      <trkpt lat="43.94991" lon="7.00604">
        <ele>518.77</ele>
        <time>2015-03-18T14:04:53Z</time>
      </trkpt>
      <trkpt lat="43.94986" lon="7.006">
        <ele>515.88</ele>
        <time>2015-03-18T14:05:03Z</time>
      </trkpt>
      <trkpt lat="43.94981" lon="7.00596">
        <ele>513</ele>
        <time>2015-03-18T14:05:14Z</time>
      </trkpt>
      <trkpt lat="43.94982" lon="7.00598">
        <ele>512.04</ele>
        <time>2015-03-18T14:05:26Z</time>
      </trkpt>
      <trkpt lat="43.94979" lon="7.00601">
        <ele>511.56</ele>
        <time>2015-03-18T14:05:46Z</time>
      </trkpt>
      <trkpt lat="43.94983" lon="7.00608">
        <ele>508.67</ele>
        <time>2015-03-18T14:05:56Z</time>
      </trkpt>
      <trkpt lat="43.94983" lon="7.00611">
        <ele>507.71</ele>
        <time>2015-03-18T14:05:59Z</time>
      </trkpt>
      <trkpt lat="43.94982" lon="7.00624">
        <ele>504.83</ele>
        <time>2015-03-18T14:06:08Z</time>
      </trkpt>
      <trkpt lat="43.9498" lon="7.0063">
        <ele>503.39</ele>
        <time>2015-03-18T14:06:13Z</time>
      </trkpt>
      <trkpt lat="43.94979" lon="7.00641">
        <ele>500.98</ele>
        <time>2015-03-18T14:06:24Z</time>
      </trkpt>
      <trkpt lat="43.94978" lon="7.00647">
        <ele>491.85</ele>
        <time>2015-03-18T14:06:32Z</time>
      </trkpt>
      <trkpt lat="43.94978" lon="7.00648">
        <ele>505.79</ele>
        <time>2015-03-18T14:06:33Z</time>
      </trkpt>
      <trkpt lat="43.94978" lon="7.00649">
        <ele>499.54</ele>
        <time>2015-03-18T14:06:34Z</time>
      </trkpt>
      <trkpt lat="43.94978" lon="7.00651">
        <ele>498.58</ele>
        <time>2015-03-18T14:06:36Z</time>
      </trkpt>
      <trkpt lat="43.94973" lon="7.0065">
        <ele>494.26</ele>
        <time>2015-03-18T14:06:45Z</time>
      </trkpt>
      <trkpt lat="43.94973" lon="7.0065">
        <ele>497.62</ele>
        <time>2015-03-18T14:06:46Z</time>
      </trkpt>
      <trkpt lat="43.9497" lon="7.00648">
        <ele>495.22</ele>
        <time>2015-03-18T14:07:00Z</time>
      </trkpt>
      <trkpt lat="43.94967" lon="7.00635">
        <ele>492.33</ele>
        <time>2015-03-18T14:07:11Z</time>
      </trkpt>
      <trkpt lat="43.94965" lon="7.00631">
        <ele>491.85</ele>
        <time>2015-03-18T14:07:14Z</time>
      </trkpt>
      <trkpt lat="43.94957" lon="7.006">
        <ele>488.97</ele>
        <time>2015-03-18T14:07:26Z</time>
      </trkpt>
      <trkpt lat="43.94955" lon="7.00591">
        <ele>486.56</ele>
        <time>2015-03-18T14:07:39Z</time>
      </trkpt>
      <trkpt lat="43.94954" lon="7.0059">
        <ele>486.08</ele>
        <time>2015-03-18T14:07:51Z</time>
      </trkpt>
      <trkpt lat="43.94954" lon="7.00592">
        <ele>484.64</ele>
        <time>2015-03-18T14:08:08Z</time>
      </trkpt>
      <trkpt lat="43.94952" lon="7.0059">
        <ele>481.28</ele>
        <time>2015-03-18T14:08:16Z</time>
      </trkpt>
      <trkpt lat="43.94949" lon="7.00591">
        <ele>478.39</ele>
        <time>2015-03-18T14:08:25Z</time>
      </trkpt>
      <trkpt lat="43.94949" lon="7.0058">
        <ele>475.99</ele>
        <time>2015-03-18T14:08:33Z</time>
      </trkpt>
      <trkpt lat="43.94942" lon="7.00575">
        <ele>473.11</ele>
        <time>2015-03-18T14:08:41Z</time>
      </trkpt>
      <trkpt lat="43.94943" lon="7.00573">
        <ele>470.7</ele>
        <time>2015-03-18T14:08:51Z</time>
      </trkpt>
      <trkpt lat="43.94948" lon="7.00578">
        <ele>470.22</ele>
        <time>2015-03-18T14:09:06Z</time>
      </trkpt>
      <trkpt lat="43.94949" lon="7.00578">
        <ele>470.22</ele>
        <time>2015-03-18T14:09:08Z</time>
      </trkpt>
      <trkpt lat="43.94951" lon="7.00589">
        <ele>469.74</ele>
        <time>2015-03-18T14:09:18Z</time>
      </trkpt>
      <trkpt lat="43.94949" lon="7.00593">
        <ele>469.26</ele>
        <time>2015-03-18T14:09:22Z</time>
      </trkpt>
      <trkpt lat="43.94946" lon="7.00604">
        <ele>466.38</ele>
        <time>2015-03-18T14:09:30Z</time>
      </trkpt>
      <trkpt lat="43.94938" lon="7.00614">
        <ele>463.49</ele>
        <time>2015-03-18T14:09:39Z</time>
      </trkpt>
      <trkpt lat="43.94936" lon="7.00619">
        <ele>460.61</ele>
        <time>2015-03-18T14:09:49Z</time>
      </trkpt>
      <trkpt lat="43.94937" lon="7.00611">
        <ele>459.65</ele>
        <time>2015-03-18T14:10:01Z</time>
      </trkpt>
      <trkpt lat="43.94933" lon="7.00612">
        <ele>459.65</ele>
        <time>2015-03-18T14:10:22Z</time>
      </trkpt>
      <trkpt lat="43.94934" lon="7.00605">
        <ele>456.76</ele>
        <time>2015-03-18T14:10:34Z</time>
      </trkpt>
      <trkpt lat="43.94932" lon="7.00601">
        <ele>453.88</ele>
        <time>2015-03-18T14:10:43Z</time>
      </trkpt>
      <trkpt lat="43.94929" lon="7.00602">
        <ele>452.92</ele>
        <time>2015-03-18T14:10:45Z</time>
      </trkpt>
      <trkpt lat="43.94927" lon="7.00604">
        <ele>451</ele>
        <time>2015-03-18T14:10:49Z</time>
      </trkpt>
      <trkpt lat="43.94925" lon="7.00603">
        <ele>449.55</ele>
        <time>2015-03-18T14:10:53Z</time>
      </trkpt>
      <trkpt lat="43.94922" lon="7.00603">
        <ele>447.15</ele>
        <time>2015-03-18T14:10:59Z</time>
      </trkpt>
      <trkpt lat="43.94917" lon="7.00605">
        <ele>446.19</ele>
        <time>2015-03-18T14:11:07Z</time>
      </trkpt>
      <trkpt lat="43.9492" lon="7.00609">
        <ele>441.86</ele>
        <time>2015-03-18T14:11:17Z</time>
      </trkpt>
      <trkpt lat="43.94912" lon="7.00609">
        <ele>438.98</ele>
        <time>2015-03-18T14:11:27Z</time>
      </trkpt>
      <trkpt lat="43.94909" lon="7.00614">
        <ele>436.1</ele>
        <time>2015-03-18T14:11:35Z</time>
      </trkpt>
      <trkpt lat="43.94904" lon="7.00618">
        <ele>433.21</ele>
        <time>2015-03-18T14:11:44Z</time>
      </trkpt>
      <trkpt lat="43.94909" lon="7.00621">
        <ele>430.81</ele>
        <time>2015-03-18T14:11:54Z</time>
      </trkpt>
      <trkpt lat="43.9491" lon="7.00625">
        <ele>430.33</ele>
        <time>2015-03-18T14:11:57Z</time>
      </trkpt>
      <trkpt lat="43.94911" lon="7.00634">
        <ele>428.4</ele>
        <time>2015-03-18T14:12:07Z</time>
      </trkpt>
      <trkpt lat="43.94911" lon="7.00635">
        <ele>427.92</ele>
        <time>2015-03-18T14:12:21Z</time>
      </trkpt>
      <trkpt lat="43.94916" lon="7.00639">
        <ele>425.04</ele>
        <time>2015-03-18T14:12:29Z</time>
      </trkpt>
      <trkpt lat="43.94916" lon="7.00641">
        <ele>424.08</ele>
        <time>2015-03-18T14:12:31Z</time>
      </trkpt>
      <trkpt lat="43.94915" lon="7.00649">
        <ele>423.12</ele>
        <time>2015-03-18T14:12:37Z</time>
      </trkpt>
      <trkpt lat="43.94913" lon="7.0065">
        <ele>422.64</ele>
        <time>2015-03-18T14:12:41Z</time>
      </trkpt>
      <trkpt lat="43.94907" lon="7.00643">
        <ele>420.71</ele>
        <time>2015-03-18T14:12:50Z</time>
      </trkpt>
      <trkpt lat="43.94906" lon="7.00642">
        <ele>420.23</ele>
        <time>2015-03-18T14:12:52Z</time>
      </trkpt>
      <trkpt lat="43.94908" lon="7.00646">
        <ele>418.31</ele>
        <time>2015-03-18T14:13:03Z</time>
      </trkpt>
      <trkpt lat="43.94908" lon="7.00646">
        <ele>418.79</ele>
        <time>2015-03-18T14:13:16Z</time>
      </trkpt>
      <trkpt lat="43.94912" lon="7.00652">
        <ele>417.83</ele>
        <time>2015-03-18T14:13:25Z</time>
      </trkpt>
      <trkpt lat="43.94913" lon="7.00665">
        <ele>417.35</ele>
        <time>2015-03-18T14:13:35Z</time>
      </trkpt>
      <trkpt lat="43.94915" lon="7.0068">
        <ele>416.39</ele>
        <time>2015-03-18T14:13:47Z</time>
      </trkpt>
      <trkpt lat="43.94918" lon="7.0069">
        <ele>414.47</ele>
        <time>2015-03-18T14:13:55Z</time>
      </trkpt>
      <trkpt lat="43.94919" lon="7.00695">
        <ele>414.47</ele>
        <time>2015-03-18T14:13:58Z</time>
      </trkpt>
      <trkpt lat="43.94919" lon="7.00708">
        <ele>414.47</ele>
        <time>2015-03-18T14:14:13Z</time>
      </trkpt>
      <trkpt lat="43.94921" lon="7.00707">
        <ele>414.47</ele>
        <time>2015-03-18T14:14:29Z</time>
      </trkpt>
      <trkpt lat="43.94928" lon="7.0071">
        <ele>414.47</ele>
        <time>2015-03-18T14:14:42Z</time>
      </trkpt>
      <trkpt lat="43.94929" lon="7.0071">
        <ele>414.47</ele>
        <time>2015-03-18T14:14:58Z</time>
      </trkpt>
      <trkpt lat="43.94925" lon="7.00706">
        <ele>413.98</ele>
        <time>2015-03-18T14:15:27Z</time>
      </trkpt>
      <trkpt lat="43.94924" lon="7.00709">
        <ele>413.98</ele>
        <time>2015-03-18T14:15:49Z</time>
      </trkpt>
      <trkpt lat="43.94924" lon="7.00708">
        <ele>413.5</ele>
        <time>2015-03-18T14:16:02Z</time>
      </trkpt>
      <trkpt lat="43.94929" lon="7.0072">
        <ele>413.02</ele>
        <time>2015-03-18T14:16:14Z</time>
      </trkpt>
      <trkpt lat="43.94937" lon="7.00731">
        <ele>413.5</ele>
        <time>2015-03-18T14:16:33Z</time>
      </trkpt>
      <trkpt lat="43.94931" lon="7.00715">
        <ele>413.98</ele>
        <time>2015-03-18T14:16:53Z</time>
      </trkpt>
      <trkpt lat="43.94901" lon="7.00689">
        <ele>411.1</ele>
        <time>2015-03-18T14:17:05Z</time>
      </trkpt>
      <trkpt lat="43.949" lon="7.00682">
        <ele>410.14</ele>
        <time>2015-03-18T14:17:18Z</time>
      </trkpt>
      <trkpt lat="43.94897" lon="7.00676">
        <ele>410.14</ele>
        <time>2015-03-18T14:17:29Z</time>
      </trkpt>
      <trkpt lat="43.94882" lon="7.0067">
        <ele>410.14</ele>
        <time>2015-03-18T14:18:00Z</time>
      </trkpt>
      <trkpt lat="43.9489" lon="7.00673">
        <ele>410.14</ele>
        <time>2015-03-18T14:18:02Z</time>
      </trkpt>
      <trkpt lat="43.94897" lon="7.0068">
        <ele>410.14</ele>
        <time>2015-03-18T14:18:12Z</time>
      </trkpt>
      <trkpt lat="43.94913" lon="7.00699">
        <ele>412.06</ele>
        <time>2015-03-18T14:18:24Z</time>
      </trkpt>
      <trkpt lat="43.94928" lon="7.00707">
        <ele>414.47</ele>
        <time>2015-03-18T14:18:35Z</time>
      </trkpt>
      <trkpt lat="43.94929" lon="7.00709">
        <ele>413.98</ele>
        <time>2015-03-18T14:18:36Z</time>
      </trkpt>
      <trkpt lat="43.94935" lon="7.00721">
        <ele>413.02</ele>
        <time>2015-03-18T14:18:43Z</time>
      </trkpt>
      <trkpt lat="43.94928" lon="7.00722">
        <ele>412.06</ele>
        <time>2015-03-18T14:18:59Z</time>
      </trkpt>
      <trkpt lat="43.94905" lon="7.00727">
        <ele>410.62</ele>
        <time>2015-03-18T14:19:13Z</time>
      </trkpt>
      <trkpt lat="43.94902" lon="7.00733">
        <ele>408.7</ele>
        <time>2015-03-18T14:19:20Z</time>
      </trkpt>
      <trkpt lat="43.94896" lon="7.00734">
        <ele>405.81</ele>
        <time>2015-03-18T14:19:35Z</time>
      </trkpt>
      <trkpt lat="43.94903" lon="7.00751">
        <ele>404.37</ele>
        <time>2015-03-18T14:19:40Z</time>
      </trkpt>
      <trkpt lat="43.94905" lon="7.00753">
        <ele>403.89</ele>
        <time>2015-03-18T14:19:44Z</time>
      </trkpt>
      <trkpt lat="43.94933" lon="7.00775">
        <ele>400.53</ele>
        <time>2015-03-18T14:20:11Z</time>
      </trkpt>
      <trkpt lat="43.94881" lon="7.00822">
        <ele>391.87</ele>
        <time>2015-03-18T14:20:39Z</time>
      </trkpt>
      <trkpt lat="43.9488" lon="7.00821">
        <ele>390.43</ele>
        <time>2015-03-18T14:20:49Z</time>
      </trkpt>
      <trkpt lat="43.94879" lon="7.0082">
        <ele>387.07</ele>
        <time>2015-03-18T14:20:57Z</time>
      </trkpt>
      <trkpt lat="43.94878" lon="7.0082">
        <ele>386.59</ele>
        <time>2015-03-18T14:20:58Z</time>
      </trkpt>
      <trkpt lat="43.94877" lon="7.00818">
        <ele>385.63</ele>
        <time>2015-03-18T14:21:08Z</time>
      </trkpt>
      <trkpt lat="43.94873" lon="7.00805">
        <ele>380.82</ele>
        <time>2015-03-18T14:21:17Z</time>
      </trkpt>
      <trkpt lat="43.94871" lon="7.00802">
        <ele>377.94</ele>
        <time>2015-03-18T14:21:27Z</time>
      </trkpt>
      <trkpt lat="43.94874" lon="7.00807">
        <ele>376.97</ele>
        <time>2015-03-18T14:21:29Z</time>
      </trkpt>
      <trkpt lat="43.94878" lon="7.00805">
        <ele>375.05</ele>
        <time>2015-03-18T14:21:36Z</time>
      </trkpt>
      <trkpt lat="43.9488" lon="7.00804">
        <ele>374.57</ele>
        <time>2015-03-18T14:21:38Z</time>
      </trkpt>
      <trkpt lat="43.94881" lon="7.008">
        <ele>373.13</ele>
        <time>2015-03-18T14:21:42Z</time>
      </trkpt>
      <trkpt lat="43.94878" lon="7.00789">
        <ele>370.24</ele>
        <time>2015-03-18T14:21:51Z</time>
      </trkpt>
      <trkpt lat="43.94877" lon="7.00786">
        <ele>369.76</ele>
        <time>2015-03-18T14:21:52Z</time>
      </trkpt>
      <trkpt lat="43.9487" lon="7.00777">
        <ele>366.88</ele>
        <time>2015-03-18T14:22:03Z</time>
      </trkpt>
      <trkpt lat="43.94871" lon="7.00771">
        <ele>363.52</ele>
        <time>2015-03-18T14:22:12Z</time>
      </trkpt>
      <trkpt lat="43.94867" lon="7.0077">
        <ele>361.59</ele>
        <time>2015-03-18T14:22:17Z</time>
      </trkpt>
      <trkpt lat="43.94867" lon="7.00765">
        <ele>357.75</ele>
        <time>2015-03-18T14:22:27Z</time>
      </trkpt>
      <trkpt lat="43.94866" lon="7.00763">
        <ele>357.75</ele>
        <time>2015-03-18T14:22:28Z</time>
      </trkpt>
      <trkpt lat="43.94852" lon="7.00752">
        <ele>355.34</ele>
        <time>2015-03-18T14:22:38Z</time>
      </trkpt>
      <trkpt lat="43.94851" lon="7.00738">
        <ele>351.98</ele>
        <time>2015-03-18T14:22:51Z</time>
      </trkpt>
      <trkpt lat="43.94847" lon="7.00724">
        <ele>350.06</ele>
        <time>2015-03-18T14:22:58Z</time>
      </trkpt>
      <trkpt lat="43.94843" lon="7.00708">
        <ele>347.65</ele>
        <time>2015-03-18T14:23:05Z</time>
      </trkpt>
      <trkpt lat="43.94836" lon="7.00686">
        <ele>347.17</ele>
        <time>2015-03-18T14:23:19Z</time>
      </trkpt>
      <trkpt lat="43.94818" lon="7.00672">
        <ele>346.21</ele>
        <time>2015-03-18T14:23:31Z</time>
      </trkpt>
      <trkpt lat="43.94803" lon="7.00666">
        <ele>345.25</ele>
        <time>2015-03-18T14:23:46Z</time>
      </trkpt>
      <trkpt lat="43.94786" lon="7.00654">
        <ele>345.73</ele>
        <time>2015-03-18T14:23:57Z</time>
      </trkpt>
      <trkpt lat="43.9478" lon="7.00646">
        <ele>343.81</ele>
        <time>2015-03-18T14:24:09Z</time>
      </trkpt>
      <trkpt lat="43.94776" lon="7.0064">
        <ele>342.85</ele>
        <time>2015-03-18T14:24:17Z</time>
      </trkpt>
      <trkpt lat="43.94767" lon="7.00621">
        <ele>341.41</ele>
        <time>2015-03-18T14:24:31Z</time>
      </trkpt>
      <trkpt lat="43.94762" lon="7.00606">
        <ele>340.44</ele>
        <time>2015-03-18T14:24:42Z</time>
      </trkpt>
      <trkpt lat="43.94757" lon="7.00591">
        <ele>339</ele>
        <time>2015-03-18T14:24:56Z</time>
      </trkpt>
      <trkpt lat="43.94748" lon="7.00574">
        <ele>337.08</ele>
        <time>2015-03-18T14:25:08Z</time>
      </trkpt>
      <trkpt lat="43.94735" lon="7.00554">
        <ele>335.64</ele>
        <time>2015-03-18T14:25:22Z</time>
      </trkpt>
      <trkpt lat="43.94718" lon="7.00537">
        <ele>334.2</ele>
        <time>2015-03-18T14:25:35Z</time>
      </trkpt>
      <trkpt lat="43.9471" lon="7.00526">
        <ele>333.23</ele>
        <time>2015-03-18T14:25:43Z</time>
      </trkpt>
      <trkpt lat="43.94709" lon="7.0052">
        <ele>333.23</ele>
        <time>2015-03-18T14:25:45Z</time>
      </trkpt>
      <trkpt lat="43.94702" lon="7.00496">
        <ele>332.27</ele>
        <time>2015-03-18T14:25:56Z</time>
      </trkpt>
      <trkpt lat="43.94699" lon="7.00476">
        <ele>331.79</ele>
        <time>2015-03-18T14:26:08Z</time>
      </trkpt>
      <trkpt lat="43.94691" lon="7.00465">
        <ele>331.79</ele>
        <time>2015-03-18T14:26:13Z</time>
      </trkpt>
      <trkpt lat="43.94682" lon="7.00449">
        <ele>331.79</ele>
        <time>2015-03-18T14:26:21Z</time>
      </trkpt>
      <trkpt lat="43.94679" lon="7.00438">
        <ele>331.79</ele>
        <time>2015-03-18T14:26:28Z</time>
      </trkpt>
      <trkpt lat="43.94674" lon="7.00427">
        <ele>331.79</ele>
        <time>2015-03-18T14:26:35Z</time>
      </trkpt>
      <trkpt lat="43.94668" lon="7.00415">
        <ele>331.79</ele>
        <time>2015-03-18T14:26:42Z</time>
      </trkpt>
      <trkpt lat="43.94667" lon="7.00397">
        <ele>332.27</ele>
        <time>2015-03-18T14:26:51Z</time>
      </trkpt>
      <trkpt lat="43.9467" lon="7.00383">
        <ele>332.27</ele>
        <time>2015-03-18T14:27:01Z</time>
      </trkpt>
      <trkpt lat="43.94666" lon="7.00369">
        <ele>332.27</ele>
        <time>2015-03-18T14:27:11Z</time>
      </trkpt>
      <trkpt lat="43.9467" lon="7.00368">
        <ele>332.27</ele>
        <time>2015-03-18T14:27:27Z</time>
      </trkpt>
      <trkpt lat="43.9467" lon="7.00369">
        <ele>332.27</ele>
        <time>2015-03-18T14:27:39Z</time>
      </trkpt>
      <trkpt lat="43.94669" lon="7.00368">
        <ele>332.27</ele>
        <time>2015-03-18T14:27:56Z</time>
      </trkpt>
      <trkpt lat="43.94669" lon="7.00368">
        <ele>332.27</ele>
        <time>2015-03-18T14:27:59Z</time>
      </trkpt>
    </trkseg>
  </trk>
</gpx>